Time,TemperatureF,DewpointF,PressureIn,WindDirection,WindDirectionDegrees,WindSpeedMPH,WindSpeedGustMPH,Humidity,HourlyPrecipIn,Conditions,Clouds,dailyrainin,SoftwareType,DateUTC
2013-01-20 00:01:00,42.2,29.3,29.62,West,266,12.0,15.0,60,0.00,,---,0.00,VWS V14.00,2013-01-20 05:01:00,
2013-01-20 00:03:00,42.1,29.2,29.62,WNW,291,29.0,39.0,60,0.00,,---,0.00,VWS V14.00,2013-01-20 05:03:00,
2013-01-20 00:04:00,42.0,28.3,29.63,NW,325,25.0,39.0,58,0.00,,---,0.00,VWS V14.00,2013-01-20 05:04:00,
2013-01-20 00:06:00,42.0,28.3,29.62,West,279,5.0,39.0,58,0.00,,---,0.00,VWS V14.00,2013-01-20 05:06:00,
2013-01-20 00:08:00,41.9,27.4,29.62,NW,321,20.0,39.0,56,0.00,,---,0.00,VWS V14.00,2013-01-20 05:08:00,
2013-01-20 00:12:00,41.7,26.7,29.63,WNW,284,19.0,39.0,55,0.00,,---,0.00,VWS V14.00,2013-01-20 05:12:00,
2013-01-20 00:14:00,41.6,26.2,29.63,WNW,290,32.0,46.0,54,0.00,,---,0.00,VWS V14.00,2013-01-20 05:14:00,
2013-01-20 00:15:00,41.5,25.7,29.63,WNW,297,14.0,46.0,53,0.00,,---,0.00,VWS V14.00,2013-01-20 05:15:00,
2013-01-20 00:20:00,41.1,24.8,29.64,NW,319,31.0,46.0,52,0.00,,---,0.00,VWS V14.00,2013-01-20 05:20:00,
2013-01-20 00:21:00,40.9,24.2,29.64,NW,313,14.0,46.0,51,0.00,,---,0.00,VWS V14.00,2013-01-20 05:21:00,
2013-01-20 00:23:00,40.7,24.0,29.64,WNW,302,19.0,46.0,51,0.00,,---,0.00,VWS V14.00,2013-01-20 05:23:00,
2013-01-20 00:24:00,40.5,23.3,29.64,WNW,294,15.0,46.0,50,0.00,,---,0.00,VWS V14.00,2013-01-20 05:24:00,
2013-01-20 00:28:00,40.0,22.4,29.65,NW,320,31.0,46.0,49,0.00,,---,0.00,VWS V14.00,2013-01-20 05:28:00,
2013-01-20 00:29:00,39.9,22.3,29.64,NW,309,18.0,24.0,49,0.00,,---,0.00,VWS V14.00,2013-01-20 05:29:00,
2013-01-20 00:32:00,39.6,21.5,29.65,NW,319,28.0,38.0,48,0.00,,---,0.00,VWS V14.00,2013-01-20 05:32:00,
2013-01-20 00:33:00,39.5,21.9,29.65,NNW,327,13.0,38.0,49,0.00,,---,0.00,VWS V14.00,2013-01-20 05:33:00,
2013-01-20 00:34:00,39.4,21.8,29.65,WNW,296,27.0,38.0,49,0.00,,---,0.00,VWS V14.00,2013-01-20 05:34:00,
2013-01-20 00:36:00,39.3,22.2,29.65,WNW,294,33.0,38.0,50,0.00,,---,0.00,VWS V14.00,2013-01-20 05:36:00,
2013-01-20 00:38:00,39.1,22.0,29.65,WNW,286,19.0,38.0,50,0.00,,---,0.00,VWS V14.00,2013-01-20 05:38:00,
2013-01-20 00:41:00,38.9,22.3,29.65,West,273,10.0,38.0,51,0.00,,---,0.00,VWS V14.00,2013-01-20 05:41:00,
2013-01-20 00:44:00,38.7,22.6,29.65,WNW,291,17.0,38.0,52,0.00,,---,0.00,VWS V14.00,2013-01-20 05:44:00,
2013-01-20 00:46:00,38.6,22.5,29.65,WNW,302,11.0,38.0,52,0.00,,---,0.00,VWS V14.00,2013-01-20 05:46:00,
2013-01-20 00:47:00,38.5,22.9,29.66,NW,304,25.0,38.0,53,0.00,,---,0.00,VWS V14.00,2013-01-20 05:47:00,
2013-01-20 00:49:00,38.4,22.8,29.66,WNW,292,15.0,38.0,53,0.00,,---,0.00,VWS V14.00,2013-01-20 05:49:00,
2013-01-20 00:52:00,38.2,22.6,29.66,NW,322,22.0,38.0,53,0.00,,---,0.00,VWS V14.00,2013-01-20 05:52:00,
2013-01-20 00:53:00,38.0,22.4,29.66,NW,309,24.0,38.0,53,0.00,,---,0.00,VWS V14.00,2013-01-20 05:53:00,
2013-01-20 00:55:00,37.6,22.0,29.67,WNW,302,14.0,38.0,53,0.00,,---,0.00,VWS V14.00,2013-01-20 05:55:00,
2013-01-20 00:57:00,37.4,21.9,29.67,NNW,334,24.0,39.0,53,0.00,,---,0.00,VWS V14.00,2013-01-20 05:57:00,
2013-01-20 00:58:00,37.3,22.2,29.67,WNW,303,25.0,39.0,54,0.00,,---,0.00,VWS V14.00,2013-01-20 05:58:00,
2013-01-20 01:01:00,37.0,21.9,29.68,NW,326,14.0,32.0,54,0.00,,---,0.00,VWS V14.00,2013-01-20 06:01:00,
2013-01-20 01:03:00,36.9,21.8,29.68,NW,309,20.0,33.0,54,0.00,,---,0.00,VWS V14.00,2013-01-20 06:03:00,
2013-01-20 01:05:00,36.7,22.1,29.69,WNW,300,19.0,33.0,55,0.00,,---,0.00,VWS V14.00,2013-01-20 06:05:00,
2013-01-20 01:07:00,36.5,22.3,29.69,NW,310,10.0,33.0,56,0.00,,---,0.00,VWS V14.00,2013-01-20 06:07:00,
2013-01-20 01:08:00,36.4,22.2,29.70,WNW,301,12.0,33.0,56,0.00,,---,0.00,VWS V14.00,2013-01-20 06:08:00,
2013-01-20 01:11:00,36.1,21.9,29.69,NW,309,31.0,37.0,56,0.00,,---,0.00,VWS V14.00,2013-01-20 06:11:00,
2013-01-20 01:14:00,35.7,22.0,29.70,West,273,25.0,41.0,57,0.00,,---,0.00,VWS V14.00,2013-01-20 06:14:00,
2013-01-20 01:15:00,35.5,21.8,29.70,NW,322,32.0,41.0,57,0.00,,---,0.00,VWS V14.00,2013-01-20 06:15:00,
2013-01-20 01:17:00,34.8,20.7,29.71,NNW,341,25.0,41.0,56,0.00,,---,0.00,VWS V14.00,2013-01-20 06:17:00,
2013-01-20 01:20:00,34.2,19.7,29.71,WNW,288,33.0,41.0,55,0.00,,---,0.00,VWS V14.00,2013-01-20 06:20:00,
2013-01-20 01:22:00,33.7,19.3,29.72,WNW,292,19.0,41.0,55,0.00,,---,0.00,VWS V14.00,2013-01-20 06:22:00,
2013-01-20 01:23:00,33.6,19.2,29.71,NW,313,29.0,41.0,55,0.00,,---,0.00,VWS V14.00,2013-01-20 06:23:00,
2013-01-20 01:25:00,33.3,18.9,29.72,West,267,27.0,41.0,55,0.00,,---,0.00,VWS V14.00,2013-01-20 06:25:00,
2013-01-20 01:27:00,33.1,18.7,29.73,NW,308,14.0,41.0,55,0.00,,---,0.00,VWS V14.00,2013-01-20 06:27:00,
2013-01-20 01:28:00,33.0,18.6,29.73,NW,313,22.0,41.0,55,0.00,,---,0.00,VWS V14.00,2013-01-20 06:28:00,
2013-01-20 01:31:00,32.5,17.7,29.74,NNW,334,19.0,35.0,54,0.00,,---,0.00,VWS V14.00,2013-01-20 06:31:00,
2013-01-20 01:32:00,32.3,17.5,29.74,NNW,333,17.0,35.0,54,0.00,,---,0.00,VWS V14.00,2013-01-20 06:32:00,
2013-01-20 01:33:00,32.2,17.4,29.74,North,355,26.0,35.0,54,0.00,,---,0.00,VWS V14.00,2013-01-20 06:33:00,
2013-01-20 01:34:00,31.9,17.2,29.74,WNW,288,33.0,35.0,54,0.00,,---,0.00,VWS V14.00,2013-01-20 06:34:00,
2013-01-20 01:37:00,31.5,16.8,29.75,NNW,334,19.0,35.0,54,0.00,,---,0.00,VWS V14.00,2013-01-20 06:37:00,
2013-01-20 01:39:00,31.3,17.0,29.75,NW,309,18.0,35.0,55,0.00,,---,0.00,VWS V14.00,2013-01-20 06:39:00,
2013-01-20 01:40:00,31.3,17.0,29.75,NW,306,23.0,35.0,55,0.00,,---,0.00,VWS V14.00,2013-01-20 06:40:00,
2013-01-20 01:43:00,31.1,17.2,29.75,NW,326,24.0,35.0,56,0.00,,---,0.00,VWS V14.00,2013-01-20 06:43:00,
2013-01-20 01:44:00,31.0,17.2,29.76,WNW,290,28.0,35.0,56,0.00,,---,0.00,VWS V14.00,2013-01-20 06:44:00,
2013-01-20 01:45:00,30.9,17.1,29.75,WNW,288,24.0,35.0,56,0.00,,---,0.00,VWS V14.00,2013-01-20 06:45:00,
2013-01-20 01:48:00,30.7,16.9,29.76,NNW,329,23.0,35.0,56,0.00,,---,0.00,VWS V14.00,2013-01-20 06:48:00,
2013-01-20 01:51:00,30.6,17.2,29.76,NNW,327,22.0,35.0,57,0.00,,---,0.00,VWS V14.00,2013-01-20 06:51:00,
2013-01-20 01:53:00,30.5,17.5,29.76,WNW,296,10.0,35.0,58,0.00,,---,0.00,VWS V14.00,2013-01-20 06:53:00,
2013-01-20 01:56:00,30.4,17.8,29.76,NW,313,14.0,35.0,59,0.00,,---,0.00,VWS V14.00,2013-01-20 06:56:00,
2013-01-20 01:57:00,30.4,17.8,29.77,NW,313,19.0,35.0,59,0.00,,---,0.00,VWS V14.00,2013-01-20 06:57:00,
2013-01-20 01:59:00,30.3,18.1,29.77,West,265,14.0,22.0,60,0.00,,---,0.00,VWS V14.00,2013-01-20 06:59:00,
2013-01-20 02:01:00,30.1,17.9,29.77,WNW,286,19.0,31.0,60,0.00,,---,0.00,VWS V14.00,2013-01-20 07:01:00,
2013-01-20 02:02:00,30.0,18.2,29.77,NW,304,31.0,33.0,61,0.00,,---,0.00,VWS V14.00,2013-01-20 07:02:00,
2013-01-20 02:03:00,29.9,18.1,29.78,West,279,30.0,33.0,61,0.00,,---,0.00,VWS V14.00,2013-01-20 07:03:00,
2013-01-20 02:04:00,29.8,18.0,29.78,NNW,328,27.0,33.0,61,0.00,,---,0.00,VWS V14.00,2013-01-20 07:04:00,
2013-01-20 02:06:00,29.6,18.2,29.78,WNW,284,18.0,33.0,62,0.00,,---,0.00,VWS V14.00,2013-01-20 07:06:00,
2013-01-20 02:07:00,29.5,18.5,29.78,WNW,288,21.0,33.0,63,0.00,,---,0.00,VWS V14.00,2013-01-20 07:07:00,
2013-01-20 02:09:00,29.5,18.5,29.78,NW,324,11.0,33.0,63,0.00,,---,0.00,VWS V14.00,2013-01-20 07:09:00,
2013-01-20 02:10:00,29.4,18.4,29.78,NW,305,10.0,33.0,63,0.00,,---,0.00,VWS V14.00,2013-01-20 07:10:00,
2013-01-20 02:12:00,29.4,19.1,29.78,NNW,347,16.0,33.0,65,0.00,,---,0.00,VWS V14.00,2013-01-20 07:12:00,
2013-01-20 02:14:00,29.0,20.1,29.79,NNW,343,24.0,35.0,69,0.00,,---,0.00,VWS V14.00,2013-01-20 07:14:00,
2013-01-20 02:15:00,28.8,19.9,29.79,NW,318,26.0,35.0,69,0.00,,---,0.00,VWS V14.00,2013-01-20 07:15:00,
2013-01-20 02:16:00,28.5,20.6,29.79,NNW,348,26.0,35.0,72,0.00,,---,0.00,VWS V14.00,2013-01-20 07:16:00,
2013-01-20 02:19:00,28.0,21.1,29.80,NNW,348,20.0,35.0,75,0.00,,---,0.00,VWS V14.00,2013-01-20 07:19:00,
2013-01-20 02:20:00,27.9,21.0,29.80,NW,304,13.0,35.0,75,0.00,,---,0.00,VWS V14.00,2013-01-20 07:20:00,
2013-01-20 02:21:00,27.8,20.9,29.80,NNW,329,27.0,35.0,75,0.00,,---,0.00,VWS V14.00,2013-01-20 07:21:00,
2013-01-20 02:22:00,27.6,21.0,29.80,WNW,300,20.0,35.0,76,0.00,,---,0.00,VWS V14.00,2013-01-20 07:22:00,
2013-01-20 02:26:00,27.4,21.1,29.81,NW,311,14.0,35.0,77,0.00,,---,0.00,VWS V14.00,2013-01-20 07:26:00,
2013-01-20 02:27:00,27.4,20.8,29.81,NNW,329,23.0,35.0,76,0.00,,---,0.00,VWS V14.00,2013-01-20 07:27:00,
2013-01-20 02:28:00,27.4,20.2,29.81,NNW,338,23.0,35.0,74,0.00,,---,0.00,VWS V14.00,2013-01-20 07:28:00,
2013-01-20 02:29:00,27.4,19.6,29.81,NNW,342,24.0,26.0,72,0.00,,---,0.00,VWS V14.00,2013-01-20 07:29:00,
2013-01-20 02:31:00,27.4,19.2,29.81,WNW,303,14.0,31.0,71,0.00,,---,0.00,VWS V14.00,2013-01-20 07:31:00,
2013-01-20 02:33:00,27.5,19.0,29.82,West,277,15.0,31.0,70,0.00,,---,0.00,VWS V14.00,2013-01-20 07:33:00,
2013-01-20 02:34:00,27.5,19.0,29.82,NW,314,20.0,31.0,70,0.00,,---,0.00,VWS V14.00,2013-01-20 07:34:00,
2013-01-20 02:35:00,27.5,19.0,29.82,NNW,333,10.0,31.0,70,0.00,,---,0.00,VWS V14.00,2013-01-20 07:35:00,
2013-01-20 02:37:00,27.5,19.0,29.82,NW,317,11.0,31.0,70,0.00,,---,0.00,VWS V14.00,2013-01-20 07:37:00,
2013-01-20 02:40:00,27.3,17.5,29.83,NW,313,14.0,36.0,66,0.00,,---,0.00,VWS V14.00,2013-01-20 07:40:00,
2013-01-20 02:41:00,27.2,17.4,29.83,WNW,303,20.0,41.0,66,0.00,,---,0.00,VWS V14.00,2013-01-20 07:41:00,
2013-01-20 02:42:00,27.2,17.0,29.83,NW,323,30.0,41.0,65,0.00,,---,0.00,VWS V14.00,2013-01-20 07:42:00,
2013-01-20 02:43:00,27.1,16.6,29.83,North,350,18.0,41.0,64,0.00,,---,0.00,VWS V14.00,2013-01-20 07:43:00,
2013-01-20 02:45:00,27.0,16.5,29.83,WNW,303,17.0,41.0,64,0.00,,---,0.00,VWS V14.00,2013-01-20 07:45:00,
2013-01-20 02:47:00,26.9,16.0,29.83,NNW,333,19.0,41.0,63,0.00,,---,0.00,VWS V14.00,2013-01-20 07:47:00,
2013-01-20 02:49:00,26.9,16.4,29.83,NW,325,15.0,41.0,64,0.00,,---,0.00,VWS V14.00,2013-01-20 07:49:00,
2013-01-20 02:50:00,26.8,16.3,29.84,North,350,13.0,41.0,64,0.00,,---,0.00,VWS V14.00,2013-01-20 07:50:00,
2013-01-20 02:51:00,26.8,16.3,29.84,NNW,331,15.0,41.0,64,0.00,,---,0.00,VWS V14.00,2013-01-20 07:51:00,
2013-01-20 02:52:00,26.8,16.6,29.84,WNW,286,18.0,41.0,65,0.00,,---,0.00,VWS V14.00,2013-01-20 07:52:00,
2013-01-20 02:56:00,26.6,16.8,29.84,NW,322,23.0,41.0,66,0.00,,---,0.00,VWS V14.00,2013-01-20 07:56:00,
2013-01-20 02:57:00,26.3,16.9,29.85,NW,324,15.0,41.0,67,0.00,,---,0.00,VWS V14.00,2013-01-20 07:57:00,
2013-01-20 02:58:00,26.3,16.9,29.85,WNW,294,18.0,41.0,67,0.00,,---,0.00,VWS V14.00,2013-01-20 07:58:00,
2013-01-20 03:01:00,25.8,17.4,29.85,NW,309,14.0,31.0,70,0.00,,---,0.00,VWS V14.00,2013-01-20 08:01:00,
2013-01-20 03:03:00,25.4,18.0,29.86,NW,319,23.0,31.0,73,0.00,,---,0.00,VWS V14.00,2013-01-20 08:03:00,
2013-01-20 03:04:00,25.3,17.9,29.86,NW,322,16.0,31.0,73,0.00,,---,0.00,VWS V14.00,2013-01-20 08:04:00,
2013-01-20 03:06:00,25.0,17.6,29.86,NW,326,19.0,33.0,73,0.00,,---,0.00,VWS V14.00,2013-01-20 08:06:00,
2013-01-20 03:08:00,24.7,17.6,29.86,WNW,300,22.0,34.0,74,0.00,,---,0.00,VWS V14.00,2013-01-20 08:08:00,
2013-01-20 03:09:00,24.7,17.9,29.86,NNW,333,17.0,34.0,75,0.00,,---,0.00,VWS V14.00,2013-01-20 08:09:00,
2013-01-20 03:15:00,24.6,17.2,29.87,NNW,336,13.0,34.0,73,0.00,,---,0.00,VWS V14.00,2013-01-20 08:15:00,
2013-01-20 03:16:00,24.7,17.3,29.87,WNW,288,16.0,34.0,73,0.00,,---,0.00,VWS V14.00,2013-01-20 08:16:00,
2013-01-20 03:21:00,24.7,16.6,29.88,NW,326,18.0,34.0,71,0.00,,---,0.00,VWS V14.00,2013-01-20 08:21:00,
2013-01-20 03:22:00,24.7,16.3,29.88,WNW,292,18.0,39.0,70,0.00,,---,0.00,VWS V14.00,2013-01-20 08:22:00,
2013-01-20 03:26:00,24.6,16.2,29.88,North,355,12.0,39.0,70,0.00,,---,0.00,VWS V14.00,2013-01-20 08:26:00,
2013-01-20 03:27:00,24.5,16.1,29.88,NNW,345,21.0,39.0,70,0.00,,---,0.00,VWS V14.00,2013-01-20 08:27:00,
2013-01-20 03:28:00,24.4,16.0,29.89,WNW,284,25.0,33.0,70,0.00,,---,0.00,VWS V14.00,2013-01-20 08:28:00,
2013-01-20 03:32:00,24.0,16.0,29.89,NNW,347,29.0,33.0,71,0.00,,---,0.00,VWS V14.00,2013-01-20 08:32:00,
2013-01-20 03:35:00,23.9,15.9,29.90,NNW,341,22.0,33.0,71,0.00,,---,0.00,VWS V14.00,2013-01-20 08:35:00,
2013-01-20 03:37:00,23.6,15.6,29.90,North,355,20.0,33.0,71,0.00,,---,0.00,VWS V14.00,2013-01-20 08:37:00,
2013-01-20 03:38:00,23.5,15.5,29.90,NNE,16,15.0,33.0,71,0.00,,---,0.00,VWS V14.00,2013-01-20 08:38:00,
2013-01-20 03:39:00,23.4,15.4,29.90,NNW,331,19.0,33.0,71,0.00,,---,0.00,VWS V14.00,2013-01-20 08:39:00,
2013-01-20 03:40:00,23.3,15.3,29.90,NNW,336,31.0,33.0,71,0.00,,---,0.00,VWS V14.00,2013-01-20 08:40:00,
2013-01-20 03:42:00,23.2,14.9,29.90,NW,326,21.0,33.0,70,0.00,,---,0.00,VWS V14.00,2013-01-20 08:42:00,
2013-01-20 03:44:00,23.1,14.5,29.90,NNW,341,19.0,33.0,69,0.00,,---,0.00,VWS V14.00,2013-01-20 08:44:00,
2013-01-20 03:46:00,23.1,14.5,29.90,NNW,341,7.0,33.0,69,0.00,,---,0.00,VWS V14.00,2013-01-20 08:46:00,
2013-01-20 03:49:00,23.1,14.1,29.91,NW,310,21.0,33.0,68,0.00,,---,0.00,VWS V14.00,2013-01-20 08:49:00,
2013-01-20 03:50:00,22.9,13.9,29.91,NNW,348,25.0,33.0,68,0.00,,---,0.00,VWS V14.00,2013-01-20 08:50:00,
2013-01-20 03:52:00,22.8,14.2,29.91,WNW,302,14.0,33.0,69,0.00,,---,0.00,VWS V14.00,2013-01-20 08:52:00,
2013-01-20 03:55:00,22.6,14.3,29.91,NW,311,27.0,33.0,70,0.00,,---,0.00,VWS V14.00,2013-01-20 08:55:00,
2013-01-20 03:57:00,22.5,14.2,29.91,WNW,297,16.0,33.0,70,0.00,,---,0.00,VWS V14.00,2013-01-20 08:57:00,
2013-01-20 03:58:00,22.4,14.1,29.92,NNW,348,16.0,33.0,70,0.00,,---,0.00,VWS V14.00,2013-01-20 08:58:00,
2013-01-20 04:01:00,22.4,14.4,29.92,WNW,294,13.0,23.0,71,0.00,,---,0.00,VWS V14.00,2013-01-20 09:01:00,
2013-01-20 04:03:00,22.3,14.7,29.92,NW,321,18.0,25.0,72,0.00,,---,0.00,VWS V14.00,2013-01-20 09:03:00,
2013-01-20 04:04:00,22.2,14.6,29.92,WNW,291,17.0,25.0,72,0.00,,---,0.00,VWS V14.00,2013-01-20 09:04:00,
2013-01-20 04:05:00,22.1,14.8,29.92,NW,325,21.0,33.0,73,0.00,,---,0.00,VWS V14.00,2013-01-20 09:05:00,
2013-01-20 04:06:00,21.9,14.6,29.92,NNW,340,19.0,33.0,73,0.00,,---,0.00,VWS V14.00,2013-01-20 09:06:00,
2013-01-20 04:09:00,21.5,14.8,29.92,NNW,333,21.0,33.0,75,0.00,,---,0.00,VWS V14.00,2013-01-20 09:09:00,
2013-01-20 04:10:00,21.5,14.8,29.92,West,265,10.0,33.0,75,0.00,,---,0.00,VWS V14.00,2013-01-20 09:10:00,
2013-01-20 04:11:00,21.4,14.7,29.93,WNW,289,19.0,33.0,75,0.00,,---,0.00,VWS V14.00,2013-01-20 09:11:00,
2013-01-20 04:15:00,21.2,15.1,29.93,NNW,338,17.0,33.0,77,0.00,,---,0.00,VWS V14.00,2013-01-20 09:15:00,
2013-01-20 04:16:00,21.2,15.1,29.93,NNW,331,16.0,33.0,77,0.00,,---,0.00,VWS V14.00,2013-01-20 09:16:00,
2013-01-20 04:18:00,21.2,15.1,29.93,NW,324,11.0,33.0,77,0.00,,---,0.00,VWS V14.00,2013-01-20 09:18:00,
2013-01-20 04:20:00,21.2,15.1,29.93,NNW,347,27.0,33.0,77,0.00,,---,0.00,VWS V14.00,2013-01-20 09:20:00,
2013-01-20 04:22:00,21.1,15.0,29.93,NW,324,25.0,33.0,77,0.00,,---,0.00,VWS V14.00,2013-01-20 09:22:00,
2013-01-20 04:23:00,21.1,15.0,29.93,NNW,336,16.0,33.0,77,0.00,,---,0.00,VWS V14.00,2013-01-20 09:23:00,
2013-01-20 04:27:00,21.1,15.0,29.93,NW,326,8.0,33.0,77,0.00,,---,0.00,VWS V14.00,2013-01-20 09:27:00,
2013-01-20 04:28:00,21.1,15.0,29.93,NW,314,13.0,33.0,77,0.00,,---,0.00,VWS V14.00,2013-01-20 09:28:00,
2013-01-20 04:30:00,21.1,15.0,29.93,NNW,332,14.0,24.0,77,0.00,,---,0.00,VWS V14.00,2013-01-20 09:30:00,
2013-01-20 04:34:00,21.2,14.8,29.93,NW,313,16.0,27.0,76,0.00,,---,0.00,VWS V14.00,2013-01-20 09:34:00,
2013-01-20 04:35:00,21.2,14.5,29.94,NW,319,16.0,27.0,75,0.00,,---,0.00,VWS V14.00,2013-01-20 09:35:00,
2013-01-20 04:38:00,21.3,14.3,29.93,WNW,300,20.0,27.0,74,0.00,,---,0.00,VWS V14.00,2013-01-20 09:38:00,
2013-01-20 04:40:00,21.3,14.0,29.93,NW,306,23.0,27.0,73,0.00,,---,0.00,VWS V14.00,2013-01-20 09:40:00,
2013-01-20 04:41:00,21.3,14.0,29.93,NNW,328,21.0,27.0,73,0.00,,---,0.00,VWS V14.00,2013-01-20 09:41:00,
2013-01-20 04:42:00,21.3,14.0,29.94,NW,317,12.0,27.0,73,0.00,,---,0.00,VWS V14.00,2013-01-20 09:42:00,
2013-01-20 04:44:00,21.3,14.0,29.94,NW,304,10.0,27.0,73,0.00,,---,0.00,VWS V14.00,2013-01-20 09:44:00,
2013-01-20 04:45:00,21.3,14.0,29.94,NNW,327,16.0,27.0,73,0.00,,---,0.00,VWS V14.00,2013-01-20 09:45:00,
2013-01-20 04:46:00,21.3,14.0,29.94,WNW,286,11.0,27.0,73,0.00,,---,0.00,VWS V14.00,2013-01-20 09:46:00,
2013-01-20 04:47:00,21.3,14.0,29.94,NW,319,12.0,27.0,73,0.00,,---,0.00,VWS V14.00,2013-01-20 09:47:00,
2013-01-20 04:49:00,21.1,13.5,29.94,NW,319,22.0,27.0,72,0.00,,---,0.00,VWS V14.00,2013-01-20 09:49:00,
2013-01-20 04:50:00,20.9,13.3,29.95,NW,321,19.0,27.0,72,0.00,,---,0.00,VWS V14.00,2013-01-20 09:50:00,
2013-01-20 04:52:00,20.9,13.3,29.94,NNW,340,18.0,27.0,72,0.00,,---,0.00,VWS V14.00,2013-01-20 09:52:00,
2013-01-20 04:55:00,20.7,13.1,29.95,NNW,338,17.0,27.0,72,0.00,,---,0.00,VWS V14.00,2013-01-20 09:55:00,
2013-01-20 04:57:00,20.6,13.0,29.95,NNW,338,11.0,27.0,72,0.00,,---,0.00,VWS V14.00,2013-01-20 09:57:00,
2013-01-20 04:58:00,20.6,13.0,29.95,WNW,298,20.0,27.0,72,0.00,,---,0.00,VWS V14.00,2013-01-20 09:58:00,
2013-01-20 05:01:00,20.6,13.3,29.95,NW,318,15.0,19.0,73,0.00,,---,0.00,VWS V14.00,2013-01-20 10:01:00,
2013-01-20 05:03:00,20.5,13.2,29.95,WNW,299,14.0,21.0,73,0.00,,---,0.00,VWS V14.00,2013-01-20 10:03:00,
2013-01-20 05:04:00,20.5,13.2,29.95,NW,305,15.0,21.0,73,0.00,,---,0.00,VWS V14.00,2013-01-20 10:04:00,
2013-01-20 05:06:00,20.5,13.5,29.95,NW,309,18.0,21.0,74,0.00,,---,0.00,VWS V14.00,2013-01-20 10:06:00,
2013-01-20 05:08:00,20.4,13.8,29.96,WNW,294,14.0,21.0,75,0.00,,---,0.00,VWS V14.00,2013-01-20 10:08:00,
2013-01-20 05:09:00,20.3,13.7,29.96,North,5,13.0,25.0,75,0.00,,---,0.00,VWS V14.00,2013-01-20 10:09:00,
2013-01-20 05:11:00,20.3,13.7,29.96,NNW,333,12.0,25.0,75,0.00,,---,0.00,VWS V14.00,2013-01-20 10:11:00,
2013-01-20 05:15:00,20.2,13.9,29.97,NW,313,14.0,25.0,76,0.00,,---,0.00,VWS V14.00,2013-01-20 10:15:00,
2013-01-20 05:16:00,20.2,13.9,29.97,NW,325,11.0,25.0,76,0.00,,---,0.00,VWS V14.00,2013-01-20 10:16:00,
2013-01-20 05:17:00,20.1,13.8,29.97,NW,319,10.0,25.0,76,0.00,,---,0.00,VWS V14.00,2013-01-20 10:17:00,
2013-01-20 05:20:00,20.0,14.0,29.97,NW,311,7.0,25.0,77,0.00,,---,0.00,VWS V14.00,2013-01-20 10:20:00,
2013-01-20 05:22:00,19.9,13.9,29.97,NW,311,9.0,25.0,77,0.00,,---,0.00,VWS V14.00,2013-01-20 10:22:00,
2013-01-20 05:23:00,19.9,13.9,29.97,NNW,336,15.0,27.0,77,0.00,,---,0.00,VWS V14.00,2013-01-20 10:23:00,
2013-01-20 05:24:00,19.9,13.9,29.97,WNW,299,11.0,27.0,77,0.00,,---,0.00,VWS V14.00,2013-01-20 10:24:00,
2013-01-20 05:28:00,19.8,13.8,29.97,NW,311,14.0,27.0,77,0.00,,---,0.00,VWS V14.00,2013-01-20 10:28:00,
2013-01-20 05:29:00,19.8,13.8,29.98,NNW,338,20.0,20.0,77,0.00,,---,0.00,VWS V14.00,2013-01-20 10:29:00,
2013-01-20 05:31:00,19.7,14.0,29.98,North,5,13.0,20.0,78,0.00,,---,0.00,VWS V14.00,2013-01-20 10:31:00,
2013-01-20 05:34:00,19.6,13.9,29.98,NNW,329,14.0,25.0,78,0.00,,---,0.00,VWS V14.00,2013-01-20 10:34:00,
2013-01-20 05:35:00,19.5,13.8,29.98,NNW,327,24.0,28.0,78,0.00,,---,0.00,VWS V14.00,2013-01-20 10:35:00,
2013-01-20 05:37:00,19.4,14.0,29.98,NW,319,28.0,28.0,79,0.00,,---,0.00,VWS V14.00,2013-01-20 10:37:00,
2013-01-20 05:40:00,19.1,14.0,29.98,WNW,291,19.0,28.0,80,0.00,,---,0.00,VWS V14.00,2013-01-20 10:40:00,
2013-01-20 05:42:00,19.1,14.2,29.98,NW,318,19.0,30.0,81,0.00,,---,0.00,VWS V14.00,2013-01-20 10:42:00,
2013-01-20 05:43:00,19.0,13.9,29.98,WNW,296,10.0,30.0,80,0.00,,---,0.00,VWS V14.00,2013-01-20 10:43:00,
2013-01-20 05:46:00,18.9,14.0,29.99,NNW,345,23.0,30.0,81,0.00,,---,0.00,VWS V14.00,2013-01-20 10:46:00,
2013-01-20 05:47:00,19.0,13.9,29.99,North,5,20.0,30.0,80,0.00,,---,0.00,VWS V14.00,2013-01-20 10:47:00,
2013-01-20 05:49:00,18.9,13.8,29.99,NNW,338,16.0,30.0,80,0.00,,---,0.00,VWS V14.00,2013-01-20 10:49:00,
2013-01-20 05:51:00,19.0,13.3,29.99,NW,309,8.0,30.0,78,0.00,,---,0.00,VWS V14.00,2013-01-20 10:51:00,
2013-01-20 05:52:00,19.0,13.3,29.99,NW,323,5.0,30.0,78,0.00,,---,0.00,VWS V14.00,2013-01-20 10:52:00,
2013-01-20 05:55:00,19.0,13.3,29.99,NW,313,14.0,30.0,78,0.00,,---,0.00,VWS V14.00,2013-01-20 10:55:00,
2013-01-20 05:57:00,18.9,12.6,30.00,NNW,334,17.0,32.0,76,0.00,,---,0.00,VWS V14.00,2013-01-20 10:57:00,
2013-01-20 05:58:00,18.9,12.6,30.00,NNW,337,13.0,32.0,76,0.00,,---,0.00,VWS V14.00,2013-01-20 10:58:00,
2013-01-20 05:59:00,18.9,12.6,30.00,North,355,16.0,27.0,76,0.00,,---,0.00,VWS V14.00,2013-01-20 10:59:00,
2013-01-20 06:00:00,18.8,12.2,30.00,NNW,340,15.0,27.0,75,0.00,,---,0.00,VWS V14.00,2013-01-20 11:00:00,
2013-01-20 06:03:00,18.7,12.4,30.01,NW,325,8.0,27.0,76,0.00,,---,0.00,VWS V14.00,2013-01-20 11:03:00,
2013-01-20 06:04:00,18.7,12.4,30.01,NW,307,8.0,27.0,76,0.00,,---,0.00,VWS V14.00,2013-01-20 11:04:00,
2013-01-20 06:05:00,18.7,12.4,30.01,NW,321,14.0,27.0,76,0.00,,---,0.00,VWS V14.00,2013-01-20 11:05:00,
2013-01-20 06:06:00,18.7,12.4,30.01,NW,304,13.0,27.0,76,0.00,,---,0.00,VWS V14.00,2013-01-20 11:06:00,
2013-01-20 06:08:00,18.7,12.4,30.01,North,9,11.0,27.0,76,0.00,,---,0.00,VWS V14.00,2013-01-20 11:08:00,
2013-01-20 06:10:00,18.7,12.7,30.02,NW,315,13.0,27.0,77,0.00,,---,0.00,VWS V14.00,2013-01-20 11:10:00,
2013-01-20 06:11:00,18.6,12.6,30.02,NNW,331,16.0,27.0,77,0.00,,---,0.00,VWS V14.00,2013-01-20 11:11:00,
2013-01-20 06:13:00,18.5,12.5,30.02,WNW,284,19.0,27.0,77,0.00,,---,0.00,VWS V14.00,2013-01-20 11:13:00,
2013-01-20 06:14:00,18.5,12.5,30.02,North,355,11.0,27.0,77,0.00,,---,0.00,VWS V14.00,2013-01-20 11:14:00,
2013-01-20 06:16:00,18.5,12.8,30.02,NW,321,12.0,27.0,78,0.00,,---,0.00,VWS V14.00,2013-01-20 11:16:00,
2013-01-20 06:18:00,18.5,12.8,30.02,North,5,12.0,27.0,78,0.00,,---,0.00,VWS V14.00,2013-01-20 11:18:00,
2013-01-20 06:21:00,18.3,12.6,30.02,NW,316,5.0,27.0,78,0.00,,---,0.00,VWS V14.00,2013-01-20 11:21:00,
2013-01-20 06:22:00,18.2,12.5,30.03,NW,312,10.0,27.0,78,0.00,,---,0.00,VWS V14.00,2013-01-20 11:22:00,
2013-01-20 06:23:00,18.2,12.8,30.03,WNW,295,9.0,27.0,79,0.00,,---,0.00,VWS V14.00,2013-01-20 11:23:00,
2013-01-20 06:27:00,18.1,13.0,30.03,NNW,340,12.0,27.0,80,0.00,,---,0.00,VWS V14.00,2013-01-20 11:27:00,
2013-01-20 06:28:00,18.0,12.9,30.03,WNW,294,14.0,27.0,80,0.00,,---,0.00,VWS V14.00,2013-01-20 11:28:00,
2013-01-20 06:29:00,18.0,12.9,30.03,North,355,13.0,20.0,80,0.00,,---,0.00,VWS V14.00,2013-01-20 11:29:00,
2013-01-20 06:32:00,18.0,12.9,30.03,NW,310,14.0,25.0,80,0.00,,---,0.00,VWS V14.00,2013-01-20 11:32:00,
2013-01-20 06:33:00,18.0,12.9,30.03,NW,318,12.0,25.0,80,0.00,,---,0.00,VWS V14.00,2013-01-20 11:33:00,
2013-01-20 06:34:00,18.0,12.9,30.03,NNW,331,15.0,25.0,80,0.00,,---,0.00,VWS V14.00,2013-01-20 11:34:00,
2013-01-20 06:35:00,18.0,12.9,30.03,NNW,334,19.0,25.0,80,0.00,,---,0.00,VWS V14.00,2013-01-20 11:35:00,
2013-01-20 06:38:00,18.0,12.6,30.04,NW,323,15.0,25.0,79,0.00,,---,0.00,VWS V14.00,2013-01-20 11:38:00,
2013-01-20 06:39:00,18.0,12.6,30.04,WNW,297,15.0,25.0,79,0.00,,---,0.00,VWS V14.00,2013-01-20 11:39:00,
2013-01-20 06:40:00,18.0,12.6,30.04,NW,322,15.0,25.0,79,0.00,,---,0.00,VWS V14.00,2013-01-20 11:40:00,
2013-01-20 06:42:00,17.9,12.2,30.04,NNE,14,19.0,25.0,78,0.00,,---,0.00,VWS V14.00,2013-01-20 11:42:00,
2013-01-20 06:44:00,18.0,12.3,30.04,NW,310,15.0,25.0,78,0.00,,---,0.00,VWS V14.00,2013-01-20 11:44:00,
2013-01-20 06:45:00,18.0,12.3,30.04,NNW,332,20.0,25.0,78,0.00,,---,0.00,VWS V14.00,2013-01-20 11:45:00,
2013-01-20 06:48:00,18.0,12.3,30.05,NNW,344,11.0,25.0,78,0.00,,---,0.00,VWS V14.00,2013-01-20 11:48:00,
2013-01-20 06:50:00,18.0,12.3,30.05,NNW,346,18.0,25.0,78,0.00,,---,0.00,VWS V14.00,2013-01-20 11:50:00,
2013-01-20 06:54:00,18.0,12.3,30.05,North,349,14.0,25.0,78,0.00,,---,0.00,VWS V14.00,2013-01-20 11:54:00,
2013-01-20 06:55:00,18.0,12.3,30.05,NNW,331,12.0,25.0,78,0.00,,---,0.00,VWS V14.00,2013-01-20 11:55:00,
2013-01-20 06:57:00,17.9,12.2,30.05,NNW,331,15.0,25.0,78,0.00,,---,0.00,VWS V14.00,2013-01-20 11:57:00,
2013-01-20 06:59:00,18.0,12.6,30.05,NW,317,13.0,16.0,79,0.00,,---,0.00,VWS V14.00,2013-01-20 11:59:00,
2013-01-20 07:01:00,17.9,12.5,30.06,NNW,337,11.0,20.0,79,0.00,,---,0.00,VWS V14.00,2013-01-20 12:01:00,
2013-01-20 07:02:00,18.0,12.6,30.06,NNW,346,13.0,20.0,79,0.00,,---,0.00,VWS V14.00,2013-01-20 12:02:00,
2013-01-20 07:05:00,18.0,12.6,30.06,WNW,300,6.0,20.0,79,0.00,,---,0.00,VWS V14.00,2013-01-20 12:05:00,
2013-01-20 07:07:00,18.0,12.6,30.06,NW,313,11.0,20.0,79,0.00,,---,0.00,VWS V14.00,2013-01-20 12:07:00,
2013-01-20 07:08:00,18.0,12.6,30.06,WNW,302,6.0,20.0,79,0.00,,---,0.00,VWS V14.00,2013-01-20 12:08:00,
2013-01-20 07:10:00,18.1,12.7,30.06,NW,323,7.0,20.0,79,0.00,,---,0.00,VWS V14.00,2013-01-20 12:10:00,
2013-01-20 07:12:00,18.0,12.9,30.06,NNW,334,7.0,20.0,80,0.00,,---,0.00,VWS V14.00,2013-01-20 12:12:00,
2013-01-20 07:14:00,18.0,12.9,30.07,NW,315,5.0,20.0,80,0.00,,---,0.00,VWS V14.00,2013-01-20 12:14:00,
2013-01-20 07:15:00,18.0,12.9,30.07,North,5,6.0,20.0,80,0.00,,---,0.00,VWS V14.00,2013-01-20 12:15:00,
2013-01-20 07:16:00,17.9,12.8,30.07,NW,326,8.0,20.0,80,0.00,,---,0.00,VWS V14.00,2013-01-20 12:16:00,
2013-01-20 07:20:00,17.9,13.1,30.07,NW,315,7.0,20.0,81,0.00,,---,0.00,VWS V14.00,2013-01-20 12:20:00,
2013-01-20 07:22:00,17.8,13.0,30.07,NW,319,5.0,20.0,81,0.00,,---,0.00,VWS V14.00,2013-01-20 12:22:00,
2013-01-20 07:23:00,17.8,13.0,30.07,NW,315,10.0,20.0,81,0.00,,---,0.00,VWS V14.00,2013-01-20 12:23:00,
2013-01-20 07:25:00,17.9,13.1,30.07,NNW,330,12.0,20.0,81,0.00,,---,0.00,VWS V14.00,2013-01-20 12:25:00,
2013-01-20 07:28:00,17.8,13.0,30.08,NW,319,12.0,20.0,81,0.00,,---,0.00,VWS V14.00,2013-01-20 12:28:00,
2013-01-20 07:29:00,17.7,12.9,30.08,NW,326,10.0,12.0,81,0.00,,---,0.00,VWS V14.00,2013-01-20 12:29:00,
2013-01-20 07:30:00,17.7,12.9,30.08,NW,322,11.0,12.0,81,0.00,,---,0.00,VWS V14.00,2013-01-20 12:30:00,
2013-01-20 07:33:00,17.7,12.9,30.08,NNW,337,11.0,16.0,81,0.00,,---,0.00,VWS V14.00,2013-01-20 12:33:00,
2013-01-20 07:34:00,17.7,12.9,30.08,NNW,336,8.0,16.0,81,0.00,,---,0.00,VWS V14.00,2013-01-20 12:34:00,
2013-01-20 07:36:00,17.8,13.0,30.08,WNW,300,7.0,16.0,81,0.00,,---,0.00,VWS V14.00,2013-01-20 12:36:00,
2013-01-20 07:37:00,17.8,13.0,30.08,NW,319,13.0,18.0,81,0.00,,---,0.00,VWS V14.00,2013-01-20 12:37:00,
2013-01-20 07:38:00,17.8,13.0,30.08,NW,319,18.0,20.0,81,0.00,,---,0.00,VWS V14.00,2013-01-20 12:38:00,
2013-01-20 07:39:00,17.9,12.8,30.08,WNW,303,12.0,20.0,80,0.00,,---,0.00,VWS V14.00,2013-01-20 12:39:00,
2013-01-20 07:42:00,17.9,12.8,30.08,NW,316,12.0,20.0,80,0.00,,---,0.00,VWS V14.00,2013-01-20 12:42:00,
2013-01-20 07:43:00,17.8,12.7,30.08,WNW,296,10.0,20.0,80,0.00,,---,0.00,VWS V14.00,2013-01-20 12:43:00,
2013-01-20 07:45:00,17.9,12.8,30.08,NNW,333,7.0,20.0,80,0.00,,---,0.00,VWS V14.00,2013-01-20 12:45:00,
2013-01-20 07:48:00,17.9,12.8,30.08,NNW,342,12.0,20.0,80,0.00,,---,0.00,VWS V14.00,2013-01-20 12:48:00,
2013-01-20 07:49:00,17.9,12.8,30.08,WNW,302,16.0,20.0,80,0.00,,---,0.00,VWS V14.00,2013-01-20 12:49:00,
2013-01-20 07:53:00,17.9,12.8,30.09,NW,310,9.0,24.0,80,0.00,,---,0.00,VWS V14.00,2013-01-20 12:53:00,
2013-01-20 07:57:00,17.8,12.7,30.09,NNW,348,9.0,24.0,80,0.00,,---,0.00,VWS V14.00,2013-01-20 12:57:00,
2013-01-20 07:58:00,17.8,13.0,30.09,NNW,332,13.0,24.0,81,0.00,,---,0.00,VWS V14.00,2013-01-20 12:58:00,
2013-01-20 07:59:00,17.8,13.0,30.10,NW,321,6.0,13.0,81,0.00,,---,0.00,VWS V14.00,2013-01-20 12:59:00,
2013-01-20 08:05:00,17.8,13.0,30.10,NW,322,9.0,18.0,81,0.00,,---,0.00,VWS V14.00,2013-01-20 13:05:00,
2013-01-20 08:06:00,17.8,13.0,30.09,NW,317,11.0,18.0,81,0.00,,---,0.00,VWS V14.00,2013-01-20 13:06:00,
2013-01-20 08:07:00,17.8,13.0,30.09,NW,317,12.0,18.0,81,0.00,,---,0.00,VWS V14.00,2013-01-20 13:07:00,
2013-01-20 08:10:00,17.9,13.1,30.10,NNW,334,12.0,18.0,81,0.00,,---,0.00,VWS V14.00,2013-01-20 13:10:00,
2013-01-20 08:12:00,17.9,13.1,30.10,NW,304,15.0,18.0,81,0.00,,---,0.00,VWS V14.00,2013-01-20 13:12:00,
2013-01-20 08:13:00,18.0,13.2,30.10,NW,308,8.0,18.0,81,0.00,,---,0.00,VWS V14.00,2013-01-20 13:13:00,
2013-01-20 08:14:00,18.0,13.2,30.10,NW,320,9.0,18.0,81,0.00,,---,0.00,VWS V14.00,2013-01-20 13:14:00,
2013-01-20 08:16:00,18.0,13.2,30.11,NNW,334,9.0,18.0,81,0.00,,---,0.00,VWS V14.00,2013-01-20 13:16:00,
2013-01-20 08:18:00,18.0,13.2,30.11,North,350,4.0,18.0,81,0.00,,---,0.00,VWS V14.00,2013-01-20 13:18:00,
2013-01-20 08:19:00,18.0,13.2,30.11,NW,325,13.0,18.0,81,0.00,,---,0.00,VWS V14.00,2013-01-20 13:19:00,
2013-01-20 08:20:00,18.0,13.2,30.11,NNW,348,7.0,18.0,81,0.00,,---,0.00,VWS V14.00,2013-01-20 13:20:00,
2013-01-20 08:21:00,17.9,13.1,30.11,NW,315,6.0,18.0,81,0.00,,---,0.00,VWS V14.00,2013-01-20 13:21:00,
2013-01-20 08:23:00,17.9,13.1,30.11,NW,305,5.0,18.0,81,0.00,,---,0.00,VWS V14.00,2013-01-20 13:23:00,
2013-01-20 08:25:00,18.0,13.2,30.11,WNW,294,11.0,18.0,81,0.00,,---,0.00,VWS V14.00,2013-01-20 13:25:00,
2013-01-20 08:26:00,18.0,13.2,30.11,West,275,10.0,18.0,81,0.00,,---,0.00,VWS V14.00,2013-01-20 13:26:00,
2013-01-20 08:28:00,18.1,13.5,30.11,NNW,329,7.0,18.0,82,0.00,,---,0.00,VWS V14.00,2013-01-20 13:28:00,
2013-01-20 08:31:00,18.1,13.5,30.12,NW,315,3.0,13.0,82,0.00,,---,0.00,VWS V14.00,2013-01-20 13:31:00,
2013-01-20 08:34:00,18.1,13.5,30.11,NNW,329,7.0,13.0,82,0.00,,---,0.00,VWS V14.00,2013-01-20 13:34:00,
2013-01-20 08:36:00,18.1,13.5,30.11,NW,325,6.0,13.0,82,0.00,,---,0.00,VWS V14.00,2013-01-20 13:36:00,
2013-01-20 08:37:00,18.1,13.5,30.11,NW,311,5.0,13.0,82,0.00,,---,0.00,VWS V14.00,2013-01-20 13:37:00,
2013-01-20 08:39:00,18.2,13.6,30.12,NNW,336,6.0,13.0,82,0.00,,---,0.00,VWS V14.00,2013-01-20 13:39:00,
2013-01-20 08:40:00,18.2,13.6,30.12,NNW,327,6.0,13.0,82,0.00,,---,0.00,VWS V14.00,2013-01-20 13:40:00,
2013-01-20 08:43:00,18.1,13.5,30.12,North,360,7.0,18.0,82,0.00,,---,0.00,VWS V14.00,2013-01-20 13:43:00,
2013-01-20 08:45:00,18.1,13.5,30.12,NW,316,10.0,18.0,82,0.00,,---,0.00,VWS V14.00,2013-01-20 13:45:00,
2013-01-20 08:46:00,18.1,13.5,30.12,North,355,5.0,18.0,82,0.00,,---,0.00,VWS V14.00,2013-01-20 13:46:00,
2013-01-20 08:47:00,18.1,13.5,30.12,NNW,328,6.0,18.0,82,0.00,,---,0.00,VWS V14.00,2013-01-20 13:47:00,
2013-01-20 08:50:00,18.1,13.5,30.12,NNW,337,5.0,18.0,82,0.00,,---,0.00,VWS V14.00,2013-01-20 13:50:00,
2013-01-20 08:51:00,18.2,13.4,30.12,North,355,5.0,18.0,81,0.00,,---,0.00,VWS V14.00,2013-01-20 13:51:00,
2013-01-20 08:52:00,18.2,13.4,30.12,NNW,346,5.0,18.0,81,0.00,,---,0.00,VWS V14.00,2013-01-20 13:52:00,
2013-01-20 08:55:00,18.3,13.5,30.12,NW,323,7.0,18.0,81,0.00,,---,0.00,VWS V14.00,2013-01-20 13:55:00,
2013-01-20 08:57:00,18.3,13.5,30.13,NNW,338,6.0,18.0,81,0.00,,---,0.00,VWS V14.00,2013-01-20 13:57:00,
2013-01-20 08:58:00,18.3,13.5,30.13,NNW,342,7.0,18.0,81,0.00,,---,0.00,VWS V14.00,2013-01-20 13:58:00,
2013-01-20 09:01:00,18.4,13.6,30.12,NW,317,10.0,13.0,81,0.00,,---,0.00,VWS V14.00,2013-01-20 14:01:00,
2013-01-20 09:02:00,18.5,13.6,30.12,NNW,330,6.0,13.0,81,0.00,,---,0.00,VWS V14.00,2013-01-20 14:02:00,
2013-01-20 09:03:00,18.5,13.6,30.12,NNW,336,6.0,13.0,81,0.00,,---,0.00,VWS V14.00,2013-01-20 14:03:00,
2013-01-20 09:05:00,18.5,13.6,30.13,NNW,344,12.0,14.0,81,0.00,,---,0.00,VWS V14.00,2013-01-20 14:05:00,
2013-01-20 09:07:00,18.5,13.6,30.13,NNW,334,11.0,14.0,81,0.00,,---,0.00,VWS V14.00,2013-01-20 14:07:00,
2013-01-20 09:08:00,18.5,13.6,30.13,NNW,334,6.0,14.0,81,0.00,,---,0.00,VWS V14.00,2013-01-20 14:08:00,
2013-01-20 09:09:00,18.6,13.8,30.13,NNW,343,6.0,14.0,81,0.00,,---,0.00,VWS V14.00,2013-01-20 14:09:00,
2013-01-20 09:10:00,18.6,13.5,30.13,NW,312,4.0,14.0,80,0.00,,---,0.00,VWS V14.00,2013-01-20 14:10:00,
2013-01-20 09:12:00,18.6,13.5,30.13,NNW,332,5.0,14.0,80,0.00,,---,0.00,VWS V14.00,2013-01-20 14:12:00,
2013-01-20 09:14:00,18.7,13.6,30.13,NW,315,5.0,14.0,80,0.00,,---,0.00,VWS V14.00,2013-01-20 14:14:00,
2013-01-20 09:17:00,18.8,13.7,30.14,WNW,290,1.0,16.0,80,0.00,,---,0.00,VWS V14.00,2013-01-20 14:17:00,
2013-01-20 09:18:00,18.8,13.7,30.13,WNW,289,6.0,16.0,80,0.00,,---,0.00,VWS V14.00,2013-01-20 14:18:00,
2013-01-20 09:19:00,18.9,13.8,30.13,WNW,292,12.0,17.0,80,0.00,,---,0.00,VWS V14.00,2013-01-20 14:19:00,
2013-01-20 09:20:00,18.9,13.8,30.13,NW,313,11.0,17.0,80,0.00,,---,0.00,VWS V14.00,2013-01-20 14:20:00,
2013-01-20 09:25:00,18.9,13.5,30.14,WNW,303,8.0,17.0,79,0.00,,---,0.00,VWS V14.00,2013-01-20 14:25:00,
2013-01-20 09:26:00,19.0,13.6,30.14,NNW,344,6.0,17.0,79,0.00,,---,0.00,VWS V14.00,2013-01-20 14:26:00,
2013-01-20 09:28:00,19.0,13.6,30.14,NW,307,9.0,17.0,79,0.00,,---,0.00,VWS V14.00,2013-01-20 14:28:00,
2013-01-20 09:32:00,19.0,13.6,30.14,WNW,300,12.0,14.0,79,0.00,,---,0.00,VWS V14.00,2013-01-20 14:32:00,
2013-01-20 09:35:00,19.0,13.6,30.14,WNW,303,12.0,16.0,79,0.00,,---,0.00,VWS V14.00,2013-01-20 14:35:00,
2013-01-20 09:36:00,19.0,13.6,30.14,WNW,300,11.0,16.0,79,0.00,,---,0.00,VWS V14.00,2013-01-20 14:36:00,
2013-01-20 09:39:00,19.0,13.6,30.14,NW,306,12.0,16.0,79,0.00,,---,0.00,VWS V14.00,2013-01-20 14:39:00,
2013-01-20 09:40:00,19.1,13.4,30.14,North,355,6.0,18.0,78,0.00,,---,0.00,VWS V14.00,2013-01-20 14:40:00,
2013-01-20 09:41:00,19.1,13.4,30.14,NW,309,14.0,18.0,78,0.00,,---,0.00,VWS V14.00,2013-01-20 14:41:00,
2013-01-20 09:44:00,19.2,13.5,30.14,NNW,337,7.0,18.0,78,0.00,,---,0.00,VWS V14.00,2013-01-20 14:44:00,
2013-01-20 09:47:00,19.2,13.5,30.15,NNW,330,6.0,18.0,78,0.00,,---,0.00,VWS V14.00,2013-01-20 14:47:00,
2013-01-20 09:49:00,19.2,13.5,30.15,WNW,295,10.0,18.0,78,0.00,,---,0.00,VWS V14.00,2013-01-20 14:49:00,
2013-01-20 09:50:00,19.3,13.6,30.15,NW,323,13.0,18.0,78,0.00,,---,0.00,VWS V14.00,2013-01-20 14:50:00,
2013-01-20 09:52:00,19.3,13.6,30.15,NW,304,12.0,18.0,78,0.00,,---,0.00,VWS V14.00,2013-01-20 14:52:00,
2013-01-20 09:53:00,19.3,13.6,30.15,NW,317,10.0,18.0,78,0.00,,---,0.00,VWS V14.00,2013-01-20 14:53:00,
2013-01-20 09:54:00,19.3,13.6,30.15,NNW,342,7.0,18.0,78,0.00,,---,0.00,VWS V14.00,2013-01-20 14:54:00,
2013-01-20 09:58:00,19.2,13.5,30.15,NNW,337,14.0,18.0,78,0.00,,---,0.00,VWS V14.00,2013-01-20 14:58:00,
2013-01-20 09:59:00,19.2,13.5,30.16,NNW,342,17.0,17.0,78,0.00,,---,0.00,VWS V14.00,2013-01-20 14:59:00,
2013-01-20 10:01:00,19.1,13.4,30.16,NNW,333,14.0,18.0,78,0.00,,---,0.00,VWS V14.00,2013-01-20 15:01:00,
2013-01-20 10:05:00,19.1,13.4,30.16,NNW,327,5.0,18.0,78,0.00,,---,0.00,VWS V14.00,2013-01-20 15:05:00,
2013-01-20 10:06:00,19.1,13.4,30.16,NW,309,5.0,18.0,78,0.00,,---,0.00,VWS V14.00,2013-01-20 15:06:00,
2013-01-20 10:10:00,19.3,13.6,30.16,North,5,5.0,18.0,78,0.00,,---,0.00,VWS V14.00,2013-01-20 15:10:00,
2013-01-20 10:11:00,19.4,13.7,30.16,NW,311,7.0,18.0,78,0.00,,---,0.00,VWS V14.00,2013-01-20 15:11:00,
2013-01-20 10:12:00,19.4,13.7,30.16,NNW,329,10.0,18.0,78,0.00,,---,0.00,VWS V14.00,2013-01-20 15:12:00,
2013-01-20 10:14:00,19.5,13.8,30.17,West,279,11.0,18.0,78,0.00,,---,0.00,VWS V14.00,2013-01-20 15:14:00,
2013-01-20 10:16:00,19.6,13.9,30.17,NW,306,12.0,20.0,78,0.00,,---,0.00,VWS V14.00,2013-01-20 15:16:00,
2013-01-20 10:17:00,19.6,13.9,30.17,WNW,284,16.0,20.0,78,0.00,,---,0.00,VWS V14.00,2013-01-20 15:17:00,
2013-01-20 10:19:00,19.6,13.9,30.17,NW,319,16.0,20.0,78,0.00,,---,0.00,VWS V14.00,2013-01-20 15:19:00,
2013-01-20 10:22:00,19.5,13.8,30.17,NNW,336,10.0,21.0,78,0.00,,---,0.00,VWS V14.00,2013-01-20 15:22:00,
2013-01-20 10:24:00,19.4,13.7,30.17,WNW,302,10.0,21.0,78,0.00,,---,0.00,VWS V14.00,2013-01-20 15:24:00,
2013-01-20 10:25:00,19.4,13.7,30.17,NW,321,10.0,21.0,78,0.00,,---,0.00,VWS V14.00,2013-01-20 15:25:00,
2013-01-20 10:27:00,19.4,13.7,30.17,NW,326,10.0,21.0,78,0.00,,---,0.00,VWS V14.00,2013-01-20 15:27:00,
2013-01-20 10:28:00,19.4,13.7,30.17,NW,311,10.0,21.0,78,0.00,,---,0.00,VWS V14.00,2013-01-20 15:28:00,
2013-01-20 10:30:00,19.3,13.6,30.18,NNW,339,15.0,20.0,78,0.00,,---,0.00,VWS V14.00,2013-01-20 15:30:00,
2013-01-20 10:31:00,19.2,13.5,30.17,NW,304,14.0,20.0,78,0.00,,---,0.00,VWS V14.00,2013-01-20 15:31:00,
2013-01-20 10:33:00,19.2,13.5,30.18,NW,319,11.0,20.0,78,0.00,,---,0.00,VWS V14.00,2013-01-20 15:33:00,
2013-01-20 10:37:00,19.3,13.9,30.18,NNW,341,7.0,20.0,79,0.00,,---,0.00,VWS V14.00,2013-01-20 15:37:00,
2013-01-20 10:38:00,19.3,13.9,30.17,North,350,11.0,20.0,79,0.00,,---,0.00,VWS V14.00,2013-01-20 15:38:00,
2013-01-20 10:40:00,19.3,13.9,30.17,WNW,303,9.0,20.0,79,0.00,,---,0.00,VWS V14.00,2013-01-20 15:40:00,
2013-01-20 10:43:00,19.6,14.2,30.17,NNW,334,13.0,20.0,79,0.00,,---,0.00,VWS V14.00,2013-01-20 15:43:00,
2013-01-20 10:45:00,19.6,14.2,30.17,NW,326,11.0,20.0,79,0.00,,---,0.00,VWS V14.00,2013-01-20 15:45:00,
2013-01-20 10:46:00,19.5,13.8,30.17,NW,325,16.0,20.0,78,0.00,,---,0.00,VWS V14.00,2013-01-20 15:46:00,
2013-01-20 10:51:00,19.5,13.8,30.18,NW,309,7.0,20.0,78,0.00,,---,0.00,VWS V14.00,2013-01-20 15:51:00,
2013-01-20 10:53:00,19.5,13.8,30.18,NW,321,11.0,20.0,78,0.00,,---,0.00,VWS V14.00,2013-01-20 15:53:00,
2013-01-20 10:56:00,19.7,13.7,30.18,WNW,294,10.0,20.0,77,0.00,,---,0.00,VWS V14.00,2013-01-20 15:56:00,
2013-01-20 10:57:00,19.7,13.7,30.18,WNW,299,6.0,20.0,77,0.00,,---,0.00,VWS V14.00,2013-01-20 15:57:00,
2013-01-20 10:58:00,19.7,13.7,30.18,NW,317,10.0,20.0,77,0.00,,---,0.00,VWS V14.00,2013-01-20 15:58:00,
2013-01-20 11:02:00,19.7,13.7,30.18,NW,317,8.0,12.0,77,0.00,,---,0.00,VWS V14.00,2013-01-20 16:02:00,
2013-01-20 11:03:00,19.7,13.7,30.19,NW,322,12.0,12.0,77,0.00,,---,0.00,VWS V14.00,2013-01-20 16:03:00,
2013-01-20 11:04:00,19.7,13.7,30.18,WNW,284,12.0,15.0,77,0.00,,---,0.00,VWS V14.00,2013-01-20 16:04:00,
2013-01-20 11:08:00,19.7,13.7,30.19,WNW,283,11.0,15.0,77,0.00,,---,0.00,VWS V14.00,2013-01-20 16:08:00,
2013-01-20 11:09:00,19.7,13.7,30.19,NW,309,15.0,15.0,77,0.00,,---,0.00,VWS V14.00,2013-01-20 16:09:00,
2013-01-20 11:10:00,19.7,14.0,30.19,WNW,300,7.0,15.0,78,0.00,,---,0.00,VWS V14.00,2013-01-20 16:10:00,
2013-01-20 11:13:00,19.7,14.0,30.19,NNW,345,12.0,16.0,78,0.00,,---,0.00,VWS V14.00,2013-01-20 16:13:00,
2013-01-20 11:14:00,19.7,14.0,30.19,NW,310,10.0,17.0,78,0.00,,---,0.00,VWS V14.00,2013-01-20 16:14:00,
2013-01-20 11:15:00,19.7,14.0,30.19,NW,319,14.0,18.0,78,0.00,,---,0.00,VWS V14.00,2013-01-20 16:15:00,
2013-01-20 11:17:00,19.7,14.0,30.19,NW,318,17.0,18.0,78,0.00,,---,0.00,VWS V14.00,2013-01-20 16:17:00,
2013-01-20 11:18:00,19.6,13.9,30.19,WNW,284,9.0,18.0,78,0.00,,---,0.00,VWS V14.00,2013-01-20 16:18:00,
2013-01-20 11:21:00,19.6,13.9,30.19,WNW,302,9.0,18.0,78,0.00,,---,0.00,VWS V14.00,2013-01-20 16:21:00,
2013-01-20 11:22:00,19.7,14.0,30.19,WNW,292,10.0,18.0,78,0.00,,---,0.00,VWS V14.00,2013-01-20 16:22:00,
2013-01-20 11:23:00,19.7,14.0,30.19,WNW,285,12.0,18.0,78,0.00,,---,0.00,VWS V14.00,2013-01-20 16:23:00,
2013-01-20 11:26:00,19.7,14.0,30.19,WNW,290,11.0,18.0,78,0.00,,---,0.00,VWS V14.00,2013-01-20 16:26:00,
2013-01-20 11:28:00,19.7,14.0,30.19,NNW,336,13.0,18.0,78,0.00,,---,0.00,VWS V14.00,2013-01-20 16:28:00,
2013-01-20 11:31:00,19.7,14.0,30.19,NNW,330,7.0,16.0,78,0.00,,---,0.00,VWS V14.00,2013-01-20 16:31:00,
2013-01-20 11:33:00,19.7,14.0,30.19,NW,315,11.0,16.0,78,0.00,,---,0.00,VWS V14.00,2013-01-20 16:33:00,
2013-01-20 11:34:00,19.7,13.7,30.19,NNW,342,10.0,16.0,77,0.00,,---,0.00,VWS V14.00,2013-01-20 16:34:00,
2013-01-20 11:37:00,19.7,13.7,30.19,NW,322,10.0,16.0,77,0.00,,---,0.00,VWS V14.00,2013-01-20 16:37:00,
2013-01-20 11:39:00,19.7,13.7,30.19,NNW,340,10.0,16.0,77,0.00,,---,0.00,VWS V14.00,2013-01-20 16:39:00,
2013-01-20 11:40:00,19.7,14.0,30.19,WNW,302,13.0,16.0,78,0.00,,---,0.00,VWS V14.00,2013-01-20 16:40:00,
2013-01-20 11:43:00,19.7,14.0,30.19,NNW,331,13.0,16.0,78,0.00,,---,0.00,VWS V14.00,2013-01-20 16:43:00,
2013-01-20 11:44:00,19.7,14.0,30.19,WNW,298,11.0,16.0,78,0.00,,---,0.00,VWS V14.00,2013-01-20 16:44:00,
2013-01-20 11:45:00,19.7,14.0,30.19,NW,307,9.0,16.0,78,0.00,,---,0.00,VWS V14.00,2013-01-20 16:45:00,
2013-01-20 11:48:00,19.7,14.0,30.19,NNW,328,8.0,16.0,78,0.00,,---,0.00,VWS V14.00,2013-01-20 16:48:00,
2013-01-20 11:51:00,19.7,14.3,30.19,WNW,287,6.0,16.0,79,0.00,,---,0.00,VWS V14.00,2013-01-20 16:51:00,
2013-01-20 11:54:00,19.5,14.1,30.19,NNW,336,11.0,16.0,79,0.00,,---,0.00,VWS V14.00,2013-01-20 16:54:00,
2013-01-20 11:56:00,19.5,14.1,30.19,NW,310,10.0,16.0,79,0.00,,---,0.00,VWS V14.00,2013-01-20 16:56:00,
2013-01-20 11:57:00,19.4,14.0,30.19,NW,326,12.0,16.0,79,0.00,,---,0.00,VWS V14.00,2013-01-20 16:57:00,
2013-01-20 12:00:00,19.5,14.4,30.19,NW,322,7.0,14.0,80,0.00,,---,0.00,VWS V14.00,2013-01-20 17:00:00,
2013-01-20 12:01:00,19.5,14.4,30.19,NNW,334,10.0,14.0,80,0.00,,---,0.00,VWS V14.00,2013-01-20 17:01:00,
2013-01-20 12:03:00,19.5,14.4,30.19,NNW,335,7.0,14.0,80,0.00,,---,0.00,VWS V14.00,2013-01-20 17:03:00,
2013-01-20 12:05:00,19.4,14.2,30.19,WNW,301,4.0,14.0,80,0.00,,---,0.00,VWS V14.00,2013-01-20 17:05:00,
2013-01-20 12:08:00,19.7,14.5,30.18,WNW,295,11.0,14.0,80,0.00,,---,0.00,VWS V14.00,2013-01-20 17:08:00,
2013-01-20 12:10:00,19.7,14.5,30.18,NW,319,12.0,14.0,80,0.00,,---,0.00,VWS V14.00,2013-01-20 17:10:00,
2013-01-20 12:11:00,19.7,14.5,30.18,NW,317,9.0,15.0,80,0.00,,---,0.00,VWS V14.00,2013-01-20 17:11:00,
2013-01-20 12:14:00,19.7,14.3,30.18,NW,309,16.0,16.0,79,0.00,,---,0.00,VWS V14.00,2013-01-20 17:14:00,
2013-01-20 12:16:00,19.6,14.2,30.18,NW,312,7.0,17.0,79,0.00,,---,0.00,VWS V14.00,2013-01-20 17:16:00,
2013-01-20 12:17:00,19.7,14.3,30.18,NW,323,10.0,17.0,79,0.00,,---,0.00,VWS V14.00,2013-01-20 17:17:00,
2013-01-20 12:19:00,19.7,14.3,30.18,NW,306,10.0,17.0,79,0.00,,---,0.00,VWS V14.00,2013-01-20 17:19:00,
2013-01-20 12:21:00,19.7,14.3,30.18,NNW,345,6.0,17.0,79,0.00,,---,0.00,VWS V14.00,2013-01-20 17:21:00,
2013-01-20 12:22:00,19.7,14.3,30.18,NNW,333,5.0,17.0,79,0.00,,---,0.00,VWS V14.00,2013-01-20 17:22:00,
2013-01-20 12:25:00,20.0,14.6,30.17,NNW,328,4.0,17.0,79,0.00,,---,0.00,VWS V14.00,2013-01-20 17:25:00,
2013-01-20 12:26:00,20.0,14.6,30.17,NW,317,8.0,17.0,79,0.00,,---,0.00,VWS V14.00,2013-01-20 17:26:00,
2013-01-20 12:27:00,20.0,14.6,30.17,NW,310,6.0,17.0,79,0.00,,---,0.00,VWS V14.00,2013-01-20 17:27:00,
2013-01-20 12:28:00,20.0,14.3,30.17,NW,315,10.0,17.0,78,0.00,,---,0.00,VWS V14.00,2013-01-20 17:28:00,
2013-01-20 12:31:00,20.2,14.7,30.17,WNW,298,11.0,16.0,79,0.00,,---,0.00,VWS V14.00,2013-01-20 17:31:00,
2013-01-20 12:32:00,20.1,14.4,30.17,NW,304,12.0,16.0,78,0.00,,---,0.00,VWS V14.00,2013-01-20 17:32:00,
2013-01-20 12:33:00,20.1,14.4,30.17,WNW,290,7.0,16.0,78,0.00,,---,0.00,VWS V14.00,2013-01-20 17:33:00,
2013-01-20 12:34:00,20.1,14.4,30.17,NW,312,7.0,16.0,78,0.00,,---,0.00,VWS V14.00,2013-01-20 17:34:00,
2013-01-20 12:37:00,20.2,14.4,30.16,West,271,9.0,16.0,78,0.00,,---,0.00,VWS V14.00,2013-01-20 17:37:00,
2013-01-20 12:38:00,20.2,14.4,30.16,WNW,284,10.0,16.0,78,0.00,,---,0.00,VWS V14.00,2013-01-20 17:38:00,
2013-01-20 12:41:00,20.1,14.4,30.16,NW,322,5.0,16.0,78,0.00,,---,0.00,VWS V14.00,2013-01-20 17:41:00,
2013-01-20 12:43:00,20.1,14.4,30.16,WNW,287,14.0,16.0,78,0.00,,---,0.00,VWS V14.00,2013-01-20 17:43:00,
2013-01-20 12:44:00,20.1,14.4,30.16,WNW,296,11.0,16.0,78,0.00,,---,0.00,VWS V14.00,2013-01-20 17:44:00,
2013-01-20 12:46:00,20.0,14.3,30.16,West,275,9.0,18.0,78,0.00,,---,0.00,VWS V14.00,2013-01-20 17:46:00,
2013-01-20 12:49:00,20.0,14.3,30.17,NW,317,10.0,18.0,78,0.00,,---,0.00,VWS V14.00,2013-01-20 17:49:00,
2013-01-20 12:50:00,20.1,14.4,30.17,WNW,292,15.0,18.0,78,0.00,,---,0.00,VWS V14.00,2013-01-20 17:50:00,
2013-01-20 12:52:00,20.0,14.6,30.17,NW,310,11.0,18.0,79,0.00,,---,0.00,VWS V14.00,2013-01-20 17:52:00,
2013-01-20 12:54:00,20.0,14.6,30.17,WNW,299,6.0,18.0,79,0.00,,---,0.00,VWS V14.00,2013-01-20 17:54:00,
2013-01-20 12:56:00,20.0,14.6,30.17,WNW,298,10.0,18.0,79,0.00,,---,0.00,VWS V14.00,2013-01-20 17:56:00,
2013-01-20 12:57:00,20.0,14.6,30.17,WNW,303,6.0,18.0,79,0.00,,---,0.00,VWS V14.00,2013-01-20 17:57:00,
2013-01-20 12:58:00,20.0,14.6,30.17,NNW,329,11.0,18.0,79,0.00,,---,0.00,VWS V14.00,2013-01-20 17:58:00,
2013-01-20 12:59:00,19.9,14.4,30.17,WNW,303,11.0,16.0,79,0.00,,---,0.00,VWS V14.00,2013-01-20 17:59:00,
2013-01-20 13:03:00,19.7,14.3,30.17,NW,310,11.0,16.0,79,0.00,,---,0.00,VWS V14.00,2013-01-20 18:03:00,
2013-01-20 13:04:00,19.7,14.3,30.17,WNW,299,6.0,16.0,79,0.00,,---,0.00,VWS V14.00,2013-01-20 18:04:00,
2013-01-20 13:05:00,19.7,14.3,30.17,WNW,299,10.0,16.0,79,0.00,,---,0.00,VWS V14.00,2013-01-20 18:05:00,
2013-01-20 13:06:00,19.7,14.3,30.17,North,360,10.0,16.0,79,0.00,,---,0.00,VWS V14.00,2013-01-20 18:06:00,
2013-01-20 13:09:00,19.7,14.5,30.17,NW,315,7.0,16.0,80,0.00,,---,0.00,VWS V14.00,2013-01-20 18:09:00,
2013-01-20 13:10:00,19.7,14.5,30.17,NW,304,7.0,16.0,80,0.00,,---,0.00,VWS V14.00,2013-01-20 18:10:00,
2013-01-20 13:15:00,19.6,14.7,30.17,NNW,327,7.0,16.0,81,0.00,,---,0.00,VWS V14.00,2013-01-20 18:15:00,
2013-01-20 13:16:00,19.7,14.8,30.17,NNE,18,9.0,16.0,81,0.00,,---,0.00,VWS V14.00,2013-01-20 18:16:00,
2013-01-20 13:21:00,19.4,14.5,30.17,NNW,329,13.0,16.0,81,0.00,,---,0.00,VWS V14.00,2013-01-20 18:21:00,
2013-01-20 13:22:00,19.3,14.4,30.17,WNW,294,14.0,16.0,81,0.00,,---,0.00,VWS V14.00,2013-01-20 18:22:00,
2013-01-20 13:23:00,19.3,14.4,30.17,WNW,303,6.0,16.0,81,0.00,,---,0.00,VWS V14.00,2013-01-20 18:23:00,
2013-01-20 13:24:00,19.3,14.4,30.17,NW,311,8.0,16.0,81,0.00,,---,0.00,VWS V14.00,2013-01-20 18:24:00,
2013-01-20 13:26:00,19.4,14.8,30.17,NNW,327,9.0,16.0,82,0.00,,---,0.00,VWS V14.00,2013-01-20 18:26:00,
2013-01-20 13:27:00,19.5,14.9,30.17,NNW,332,8.0,16.0,82,0.00,,---,0.00,VWS V14.00,2013-01-20 18:27:00,
2013-01-20 13:29:00,19.5,14.9,30.17,NW,323,6.0,10.0,82,0.00,,---,0.00,VWS V14.00,2013-01-20 18:29:00,
2013-01-20 13:30:00,19.6,15.0,30.17,North,350,7.0,14.0,82,0.00,,---,0.00,VWS V14.00,2013-01-20 18:30:00,
2013-01-20 13:32:00,19.5,14.9,30.17,WNW,295,6.0,15.0,82,0.00,,---,0.00,VWS V14.00,2013-01-20 18:32:00,
2013-01-20 13:34:00,19.6,15.0,30.17,NW,325,10.0,15.0,82,0.00,,---,0.00,VWS V14.00,2013-01-20 18:34:00,
2013-01-20 13:35:00,19.6,15.0,30.17,NW,307,11.0,15.0,82,0.00,,---,0.00,VWS V14.00,2013-01-20 18:35:00,
2013-01-20 13:39:00,19.7,15.1,30.17,NNW,342,4.0,15.0,82,0.00,,---,0.00,VWS V14.00,2013-01-20 18:39:00,
2013-01-20 13:40:00,19.7,15.1,30.17,NNW,334,9.0,15.0,82,0.00,,---,0.00,VWS V14.00,2013-01-20 18:40:00,
2013-01-20 13:41:00,19.7,15.1,30.17,NNW,336,9.0,15.0,82,0.00,,---,0.00,VWS V14.00,2013-01-20 18:41:00,
2013-01-20 13:44:00,19.7,15.1,30.17,NW,304,12.0,15.0,82,0.00,,---,0.00,VWS V14.00,2013-01-20 18:44:00,
2013-01-20 13:45:00,19.7,15.1,30.17,NNW,334,7.0,15.0,82,0.00,,---,0.00,VWS V14.00,2013-01-20 18:45:00,
2013-01-20 13:47:00,19.6,15.0,30.17,NW,321,8.0,15.0,82,0.00,,---,0.00,VWS V14.00,2013-01-20 18:47:00,
2013-01-20 13:48:00,19.6,15.0,30.17,NW,305,4.0,15.0,82,0.00,,---,0.00,VWS V14.00,2013-01-20 18:48:00,
2013-01-20 13:50:00,19.7,15.1,30.17,NW,304,12.0,15.0,82,0.00,,---,0.00,VWS V14.00,2013-01-20 18:50:00,
2013-01-20 13:51:00,19.7,15.1,30.17,NNW,329,10.0,15.0,82,0.00,,---,0.00,VWS V14.00,2013-01-20 18:51:00,
2013-01-20 13:53:00,19.5,14.9,30.17,NNW,334,7.0,15.0,82,0.00,,---,0.00,VWS V14.00,2013-01-20 18:53:00,
2013-01-20 13:55:00,19.4,14.8,30.17,NNW,334,9.0,15.0,82,0.00,,---,0.00,VWS V14.00,2013-01-20 18:55:00,
2013-01-20 13:56:00,19.5,14.9,30.17,North,350,7.0,15.0,82,0.00,,---,0.00,VWS V14.00,2013-01-20 18:56:00,
2013-01-20 13:58:00,19.5,14.9,30.17,WNW,299,8.0,15.0,82,0.00,,---,0.00,VWS V14.00,2013-01-20 18:58:00,
2013-01-20 13:59:00,19.6,15.0,30.17,West,274,11.0,11.0,82,0.00,,---,0.00,VWS V14.00,2013-01-20 18:59:00,
2013-01-20 14:00:00,19.6,15.0,30.17,NNW,331,7.0,11.0,82,0.00,,---,0.00,VWS V14.00,2013-01-20 19:00:00,
2013-01-20 14:01:00,19.7,15.1,30.18,NNW,338,13.0,15.0,82,0.00,,---,0.00,VWS V14.00,2013-01-20 19:01:00,
2013-01-20 14:03:00,19.6,15.0,30.18,NW,326,7.0,15.0,82,0.00,,---,0.00,VWS V14.00,2013-01-20 19:03:00,
2013-01-20 14:04:00,19.6,15.0,30.18,NW,321,8.0,15.0,82,0.00,,---,0.00,VWS V14.00,2013-01-20 19:04:00,
2013-01-20 14:05:00,19.6,15.0,30.18,NNW,336,7.0,16.0,82,0.00,,---,0.00,VWS V14.00,2013-01-20 19:05:00,
2013-01-20 14:07:00,19.6,15.0,30.18,NNW,327,6.0,16.0,82,0.00,,---,0.00,VWS V14.00,2013-01-20 19:07:00,
2013-01-20 14:09:00,19.7,14.8,30.18,NNW,327,6.0,16.0,81,0.00,,---,0.00,VWS V14.00,2013-01-20 19:09:00,
2013-01-20 14:10:00,19.7,14.8,30.17,North,360,14.0,16.0,81,0.00,,---,0.00,VWS V14.00,2013-01-20 19:10:00,
2013-01-20 14:12:00,19.7,14.8,30.17,WNW,302,0.0,16.0,81,0.00,,---,0.00,VWS V14.00,2013-01-20 19:12:00,
2013-01-20 14:14:00,19.7,14.8,30.17,WNW,287,7.0,18.0,81,0.00,,---,0.00,VWS V14.00,2013-01-20 19:14:00,
2013-01-20 14:15:00,19.8,14.9,30.18,NW,309,5.0,18.0,81,0.00,,---,0.00,VWS V14.00,2013-01-20 19:15:00,
2013-01-20 14:16:00,19.8,14.9,30.18,WNW,302,6.0,18.0,81,0.00,,---,0.00,VWS V14.00,2013-01-20 19:16:00,
2013-01-20 14:17:00,19.9,15.0,30.17,NW,319,7.0,18.0,81,0.00,,---,0.00,VWS V14.00,2013-01-20 19:17:00,
2013-01-20 14:19:00,20.0,15.1,30.18,NW,325,6.0,18.0,81,0.00,,---,0.00,VWS V14.00,2013-01-20 19:19:00,
2013-01-20 14:22:00,20.0,15.1,30.18,WNW,291,8.0,18.0,81,0.00,,---,0.00,VWS V14.00,2013-01-20 19:22:00,
2013-01-20 14:24:00,20.1,15.2,30.17,WNW,288,2.0,18.0,81,0.00,,---,0.00,VWS V14.00,2013-01-20 19:24:00,
2013-01-20 14:27:00,20.2,15.0,30.18,NW,304,10.0,18.0,80,0.00,,---,0.00,VWS V14.00,2013-01-20 19:27:00,
2013-01-20 14:29:00,20.2,15.0,30.18,NNW,348,8.0,11.0,80,0.00,,---,0.00,VWS V14.00,2013-01-20 19:29:00,
2013-01-20 14:32:00,20.2,14.7,30.18,NW,321,12.0,15.0,79,0.00,,---,0.00,VWS V14.00,2013-01-20 19:32:00,
2013-01-20 14:33:00,20.1,14.6,30.18,NNW,329,6.0,15.0,79,0.00,,---,0.00,VWS V14.00,2013-01-20 19:33:00,
2013-01-20 14:35:00,20.1,14.6,30.18,NW,326,5.0,15.0,79,0.00,,---,0.00,VWS V14.00,2013-01-20 19:35:00,
2013-01-20 14:36:00,20.2,14.7,30.18,NW,310,7.0,15.0,79,0.00,,---,0.00,VWS V14.00,2013-01-20 19:36:00,
2013-01-20 14:37:00,20.2,14.7,30.18,WNW,303,5.0,15.0,79,0.00,,---,0.00,VWS V14.00,2013-01-20 19:37:00,
2013-01-20 14:38:00,20.3,14.8,30.18,North,360,14.0,15.0,79,0.00,,---,0.00,VWS V14.00,2013-01-20 19:38:00,
2013-01-20 14:40:00,20.2,14.7,30.18,WNW,300,6.0,15.0,79,0.00,,---,0.00,VWS V14.00,2013-01-20 19:40:00,
2013-01-20 14:41:00,20.1,14.6,30.18,NNW,328,12.0,15.0,79,0.00,,---,0.00,VWS V14.00,2013-01-20 19:41:00,
2013-01-20 14:42:00,20.0,14.6,30.18,North,5,10.0,18.0,79,0.00,,---,0.00,VWS V14.00,2013-01-20 19:42:00,
2013-01-20 14:43:00,19.9,14.4,30.18,NNW,333,12.0,18.0,79,0.00,,---,0.00,VWS V14.00,2013-01-20 19:43:00,
2013-01-20 14:45:00,19.8,14.4,30.18,North,355,11.0,18.0,79,0.00,,---,0.00,VWS V14.00,2013-01-20 19:45:00,
2013-01-20 14:46:00,19.7,14.5,30.18,NW,319,5.0,18.0,80,0.00,,---,0.00,VWS V14.00,2013-01-20 19:46:00,
2013-01-20 14:48:00,19.7,14.5,30.18,NW,307,0.0,18.0,80,0.00,,---,0.00,VWS V14.00,2013-01-20 19:48:00,
2013-01-20 14:50:00,19.7,14.5,30.18,NNW,327,11.0,18.0,80,0.00,,---,0.00,VWS V14.00,2013-01-20 19:50:00,
2013-01-20 14:51:00,19.7,14.5,30.18,WNW,292,4.0,18.0,80,0.00,,---,0.00,VWS V14.00,2013-01-20 19:51:00,
2013-01-20 14:53:00,19.7,14.5,30.18,NNW,333,10.0,18.0,80,0.00,,---,0.00,VWS V14.00,2013-01-20 19:53:00,
2013-01-20 14:56:00,19.8,14.6,30.19,NNW,329,6.0,18.0,80,0.00,,---,0.00,VWS V14.00,2013-01-20 19:56:00,
2013-01-20 14:58:00,19.9,14.7,30.19,NNW,345,5.0,18.0,80,0.00,,---,0.00,VWS V14.00,2013-01-20 19:58:00,
2013-01-20 15:00:00,19.9,14.4,30.19,NW,307,5.0,13.0,79,0.00,,---,0.00,VWS V14.00,2013-01-20 20:00:00,
2013-01-20 15:02:00,20.1,14.6,30.19,NW,315,10.0,14.0,79,0.00,,---,0.00,VWS V14.00,2013-01-20 20:02:00,
2013-01-20 15:03:00,20.1,14.4,30.19,NW,306,11.0,16.0,78,0.00,,---,0.00,VWS V14.00,2013-01-20 20:03:00,
2013-01-20 15:04:00,20.2,14.4,30.19,NNW,333,15.0,20.0,78,0.00,,---,0.00,VWS V14.00,2013-01-20 20:04:00,
2013-01-20 15:05:00,20.1,14.4,30.19,NW,322,14.0,20.0,78,0.00,,---,0.00,VWS V14.00,2013-01-20 20:05:00,
2013-01-20 15:09:00,20.1,14.1,30.19,NNW,347,12.0,20.0,77,0.00,,---,0.00,VWS V14.00,2013-01-20 20:09:00,
2013-01-20 15:10:00,20.1,14.4,30.19,North,355,8.0,20.0,78,0.00,,---,0.00,VWS V14.00,2013-01-20 20:10:00,
2013-01-20 15:12:00,20.0,14.3,30.19,NW,325,11.0,20.0,78,0.00,,---,0.00,VWS V14.00,2013-01-20 20:12:00,
2013-01-20 15:14:00,20.0,14.3,30.19,WNW,298,9.0,20.0,78,0.00,,---,0.00,VWS V14.00,2013-01-20 20:14:00,
2013-01-20 15:15:00,20.0,14.3,30.19,West,264,9.0,20.0,78,0.00,,---,0.00,VWS V14.00,2013-01-20 20:15:00,
2013-01-20 15:18:00,20.2,14.4,30.19,NW,313,6.0,20.0,78,0.00,,---,0.00,VWS V14.00,2013-01-20 20:18:00,
2013-01-20 15:19:00,20.2,14.4,30.19,NW,323,6.0,20.0,78,0.00,,---,0.00,VWS V14.00,2013-01-20 20:19:00,
2013-01-20 15:21:00,20.3,14.6,30.19,NNW,338,8.0,20.0,78,0.00,,---,0.00,VWS V14.00,2013-01-20 20:21:00,
2013-01-20 15:22:00,20.3,14.3,30.19,NW,313,10.0,20.0,77,0.00,,---,0.00,VWS V14.00,2013-01-20 20:22:00,
2013-01-20 15:24:00,20.3,14.0,30.19,North,349,7.0,20.0,76,0.00,,---,0.00,VWS V14.00,2013-01-20 20:24:00,
2013-01-20 15:25:00,20.3,14.0,30.19,WNW,291,9.0,20.0,76,0.00,,---,0.00,VWS V14.00,2013-01-20 20:25:00,
2013-01-20 15:26:00,20.3,14.0,30.19,NNW,327,10.0,20.0,76,0.00,,---,0.00,VWS V14.00,2013-01-20 20:26:00,
2013-01-20 15:28:00,20.3,13.7,30.19,NW,307,12.0,20.0,75,0.00,,---,0.00,VWS V14.00,2013-01-20 20:28:00,
2013-01-20 15:31:00,20.3,13.7,30.19,WNW,296,9.0,13.0,75,0.00,,---,0.00,VWS V14.00,2013-01-20 20:31:00,
2013-01-20 15:33:00,20.3,13.7,30.18,WNW,295,10.0,13.0,75,0.00,,---,0.00,VWS V14.00,2013-01-20 20:33:00,
2013-01-20 15:36:00,20.2,13.2,30.18,WNW,299,11.0,19.0,74,0.00,,---,0.00,VWS V14.00,2013-01-20 20:36:00,
2013-01-20 15:38:00,20.1,13.5,30.18,NW,308,12.0,19.0,75,0.00,,---,0.00,VWS V14.00,2013-01-20 20:38:00,
2013-01-20 15:39:00,20.1,13.5,30.18,West,273,10.0,19.0,75,0.00,,---,0.00,VWS V14.00,2013-01-20 20:39:00,
2013-01-20 15:40:00,20.2,13.6,30.18,North,355,11.0,19.0,75,0.00,,---,0.00,VWS V14.00,2013-01-20 20:40:00,
2013-01-20 15:44:00,20.2,13.6,30.18,West,277,8.0,19.0,75,0.00,,---,0.00,VWS V14.00,2013-01-20 20:44:00,
2013-01-20 15:45:00,20.2,13.6,30.18,NW,306,8.0,19.0,75,0.00,,---,0.00,VWS V14.00,2013-01-20 20:45:00,
2013-01-20 15:46:00,20.2,13.6,30.18,NW,307,7.0,19.0,75,0.00,,---,0.00,VWS V14.00,2013-01-20 20:46:00,
2013-01-20 15:49:00,20.2,13.6,30.18,NW,314,7.0,19.0,75,0.00,,---,0.00,VWS V14.00,2013-01-20 20:49:00,
2013-01-20 15:52:00,20.2,13.6,30.18,WNW,303,9.0,19.0,75,0.00,,---,0.00,VWS V14.00,2013-01-20 20:52:00,
2013-01-20 15:54:00,20.1,13.5,30.19,NW,316,6.0,19.0,75,0.00,,---,0.00,VWS V14.00,2013-01-20 20:54:00,
2013-01-20 15:56:00,20.2,13.6,30.20,WNW,288,3.0,19.0,75,0.00,,---,0.00,VWS V14.00,2013-01-20 20:56:00,
2013-01-20 15:57:00,20.2,13.6,30.19,NNW,329,10.0,19.0,75,0.00,,---,0.00,VWS V14.00,2013-01-20 20:57:00,
2013-01-20 16:00:00,20.0,13.4,30.20,WNW,292,6.0,18.0,75,0.00,,---,0.00,VWS V14.00,2013-01-20 21:00:00,
2013-01-20 16:02:00,19.9,13.3,30.20,WNW,284,7.0,19.0,75,0.00,,---,0.00,VWS V14.00,2013-01-20 21:02:00,
2013-01-20 16:03:00,19.9,13.3,30.19,NW,321,8.0,19.0,75,0.00,,---,0.00,VWS V14.00,2013-01-20 21:03:00,
2013-01-20 16:05:00,19.8,13.2,30.19,NW,315,11.0,19.0,75,0.00,,---,0.00,VWS V14.00,2013-01-20 21:05:00,
2013-01-20 16:08:00,19.7,13.1,30.19,NW,319,11.0,19.0,75,0.00,,---,0.00,VWS V14.00,2013-01-20 21:08:00,
2013-01-20 16:10:00,19.8,13.2,30.19,WNW,296,8.0,19.0,75,0.00,,---,0.00,VWS V14.00,2013-01-20 21:10:00,
2013-01-20 16:12:00,19.8,13.2,30.19,NW,320,6.0,19.0,75,0.00,,---,0.00,VWS V14.00,2013-01-20 21:12:00,
2013-01-20 16:15:00,19.8,13.5,30.19,WNW,283,5.0,19.0,76,0.00,,---,0.00,VWS V14.00,2013-01-20 21:15:00,
2013-01-20 16:16:00,19.9,13.6,30.19,NW,310,6.0,19.0,76,0.00,,---,0.00,VWS V14.00,2013-01-20 21:16:00,
2013-01-20 16:18:00,19.8,13.2,30.19,NNW,327,11.0,19.0,75,0.00,,---,0.00,VWS V14.00,2013-01-20 21:18:00,
2013-01-20 16:19:00,19.8,13.2,30.19,NW,306,13.0,19.0,75,0.00,,---,0.00,VWS V14.00,2013-01-20 21:19:00,
2013-01-20 16:20:00,19.7,13.1,30.19,NNW,344,13.0,19.0,75,0.00,,---,0.00,VWS V14.00,2013-01-20 21:20:00,
2013-01-20 16:22:00,19.7,12.8,30.19,NNW,337,4.0,19.0,74,0.00,,---,0.00,VWS V14.00,2013-01-20 21:22:00,
2013-01-20 16:24:00,19.7,13.1,30.19,NW,323,10.0,19.0,75,0.00,,---,0.00,VWS V14.00,2013-01-20 21:24:00,
2013-01-20 16:25:00,19.7,12.8,30.19,WNW,292,6.0,19.0,74,0.00,,---,0.00,VWS V14.00,2013-01-20 21:25:00,
2013-01-20 16:29:00,19.7,12.8,30.19,WNW,296,9.0,10.0,74,0.00,,---,0.00,VWS V14.00,2013-01-20 21:29:00,
2013-01-20 16:30:00,19.7,12.8,30.19,WNW,302,4.0,10.0,74,0.00,,---,0.00,VWS V14.00,2013-01-20 21:30:00,
2013-01-20 16:31:00,19.8,12.9,30.19,NNW,340,7.0,10.0,74,0.00,,---,0.00,VWS V14.00,2013-01-20 21:31:00,
2013-01-20 16:34:00,19.8,12.9,30.19,NW,322,9.0,13.0,74,0.00,,---,0.00,VWS V14.00,2013-01-20 21:34:00,
2013-01-20 16:36:00,19.8,12.9,30.19,NW,325,6.0,13.0,74,0.00,,---,0.00,VWS V14.00,2013-01-20 21:36:00,
2013-01-20 16:38:00,19.7,12.8,30.19,NNW,336,7.0,13.0,74,0.00,,---,0.00,VWS V14.00,2013-01-20 21:38:00,
2013-01-20 16:42:00,19.7,12.8,30.19,NW,317,10.0,13.0,74,0.00,,---,0.00,VWS V14.00,2013-01-20 21:42:00,
2013-01-20 16:43:00,19.7,12.8,30.19,NNW,333,7.0,13.0,74,0.00,,---,0.00,VWS V14.00,2013-01-20 21:43:00,
2013-01-20 16:44:00,19.7,12.8,30.19,NW,316,2.0,13.0,74,0.00,,---,0.00,VWS V14.00,2013-01-20 21:44:00,
2013-01-20 16:45:00,19.7,12.8,30.19,NW,313,5.0,13.0,74,0.00,,---,0.00,VWS V14.00,2013-01-20 21:45:00,
2013-01-20 16:48:00,19.8,12.9,30.19,WNW,287,10.0,13.0,74,0.00,,---,0.00,VWS V14.00,2013-01-20 21:48:00,
2013-01-20 16:49:00,19.9,13.0,30.19,NW,326,7.0,13.0,74,0.00,,---,0.00,VWS V14.00,2013-01-20 21:49:00,
2013-01-20 16:52:00,19.9,13.0,30.19,NNW,335,10.0,13.0,74,0.00,,---,0.00,VWS V14.00,2013-01-20 21:52:00,
2013-01-20 16:53:00,19.9,13.0,30.19,NW,313,11.0,13.0,74,0.00,,---,0.00,VWS V14.00,2013-01-20 21:53:00,
2013-01-20 16:55:00,19.8,13.2,30.19,NW,310,7.0,13.0,75,0.00,,---,0.00,VWS V14.00,2013-01-20 21:55:00,
2013-01-20 16:56:00,19.8,13.2,30.19,NW,311,7.0,13.0,75,0.00,,---,0.00,VWS V14.00,2013-01-20 21:56:00,
2013-01-20 16:59:00,19.8,13.2,30.19,North,349,12.0,12.0,75,0.00,,---,0.00,VWS V14.00,2013-01-20 21:59:00,
2013-01-20 17:01:00,19.7,13.1,30.19,NNW,334,2.0,12.0,75,0.00,,---,0.00,VWS V14.00,2013-01-20 22:01:00,
2013-01-20 17:03:00,19.7,13.4,30.19,North,355,11.0,15.0,76,0.00,,---,0.00,VWS V14.00,2013-01-20 22:03:00,
2013-01-20 17:04:00,19.7,13.4,30.19,NNW,331,6.0,15.0,76,0.00,,---,0.00,VWS V14.00,2013-01-20 22:04:00,
2013-01-20 17:06:00,19.5,13.2,30.19,NW,308,10.0,16.0,76,0.00,,---,0.00,VWS V14.00,2013-01-20 22:06:00,
2013-01-20 17:07:00,19.4,13.1,30.20,NW,320,8.0,16.0,76,0.00,,---,0.00,VWS V14.00,2013-01-20 22:07:00,
2013-01-20 17:09:00,19.4,13.1,30.20,NW,326,9.0,16.0,76,0.00,,---,0.00,VWS V14.00,2013-01-20 22:09:00,
2013-01-20 17:13:00,19.3,13.3,30.19,NW,306,6.0,16.0,77,0.00,,---,0.00,VWS V14.00,2013-01-20 22:13:00,
2013-01-20 17:14:00,19.3,13.3,30.20,NW,309,6.0,16.0,77,0.00,,---,0.00,VWS V14.00,2013-01-20 22:14:00,
2013-01-20 17:16:00,19.3,13.3,30.20,NW,313,6.0,16.0,77,0.00,,---,0.00,VWS V14.00,2013-01-20 22:16:00,
2013-01-20 17:17:00,19.3,13.3,30.20,NW,315,6.0,16.0,77,0.00,,---,0.00,VWS V14.00,2013-01-20 22:17:00,
2013-01-20 17:20:00,19.3,13.3,30.20,NNW,336,7.0,16.0,77,0.00,,---,0.00,VWS V14.00,2013-01-20 22:20:00,
2013-01-20 17:22:00,19.3,13.3,30.20,WNW,302,4.0,16.0,77,0.00,,---,0.00,VWS V14.00,2013-01-20 22:22:00,
2013-01-20 17:24:00,19.4,13.7,30.20,NW,321,4.0,16.0,78,0.00,,---,0.00,VWS V14.00,2013-01-20 22:24:00,
2013-01-20 17:25:00,19.4,13.7,30.20,NNW,330,9.0,16.0,78,0.00,,---,0.00,VWS V14.00,2013-01-20 22:25:00,
2013-01-20 17:28:00,19.3,13.6,30.20,NW,323,5.0,16.0,78,0.00,,---,0.00,VWS V14.00,2013-01-20 22:28:00,
2013-01-20 17:30:00,19.3,13.6,30.20,NNW,330,12.0,12.0,78,0.00,,---,0.00,VWS V14.00,2013-01-20 22:30:00,
2013-01-20 17:34:00,19.3,13.6,30.20,WNW,295,7.0,12.0,78,0.00,,---,0.00,VWS V14.00,2013-01-20 22:34:00,
2013-01-20 17:36:00,19.3,13.9,30.20,NW,313,6.0,12.0,79,0.00,,---,0.00,VWS V14.00,2013-01-20 22:36:00,
2013-01-20 17:40:00,19.3,13.9,30.20,NNW,338,7.0,12.0,79,0.00,,---,0.00,VWS V14.00,2013-01-20 22:40:00,
2013-01-20 17:42:00,19.3,13.9,30.20,NW,315,5.0,12.0,79,0.00,,---,0.00,VWS V14.00,2013-01-20 22:42:00,
2013-01-20 17:44:00,19.3,13.9,30.20,NW,315,6.0,12.0,79,0.00,,---,0.00,VWS V14.00,2013-01-20 22:44:00,
2013-01-20 17:47:00,19.3,13.6,30.20,NW,325,4.0,12.0,78,0.00,,---,0.00,VWS V14.00,2013-01-20 22:47:00,
2013-01-20 17:49:00,19.2,13.5,30.20,NNW,336,4.0,12.0,78,0.00,,---,0.00,VWS V14.00,2013-01-20 22:49:00,
2013-01-20 17:51:00,19.2,13.5,30.20,NW,308,5.0,12.0,78,0.00,,---,0.00,VWS V14.00,2013-01-20 22:51:00,
2013-01-20 17:52:00,19.2,13.5,30.20,NW,308,5.0,12.0,78,0.00,,---,0.00,VWS V14.00,2013-01-20 22:52:00,
2013-01-20 17:56:00,19.2,13.5,30.20,NW,314,6.0,12.0,78,0.00,,---,0.00,VWS V14.00,2013-01-20 22:56:00,
2013-01-20 17:57:00,19.3,13.6,30.20,NW,314,3.0,12.0,78,0.00,,---,0.00,VWS V14.00,2013-01-20 22:57:00,
2013-01-20 17:58:00,19.3,13.6,30.20,NW,314,5.0,12.0,78,0.00,,---,0.00,VWS V14.00,2013-01-20 22:58:00,
2013-01-20 18:02:00,19.3,13.6,30.21,NW,314,5.0,10.0,78,0.00,,---,0.00,VWS V14.00,2013-01-20 23:02:00,
2013-01-20 18:05:00,19.3,13.6,30.21,NNW,327,16.0,16.0,78,0.00,,---,0.00,VWS V14.00,2013-01-20 23:05:00,
2013-01-20 18:06:00,19.2,13.5,30.21,WNW,300,9.0,16.0,78,0.00,,---,0.00,VWS V14.00,2013-01-20 23:06:00,
2013-01-20 18:07:00,19.2,13.5,30.21,NNW,333,10.0,16.0,78,0.00,,---,0.00,VWS V14.00,2013-01-20 23:07:00,
2013-01-20 18:08:00,19.2,13.5,30.21,WNW,286,12.0,16.0,78,0.00,,---,0.00,VWS V14.00,2013-01-20 23:08:00,
2013-01-20 18:11:00,19.1,13.4,30.21,NW,316,6.0,16.0,78,0.00,,---,0.00,VWS V14.00,2013-01-20 23:11:00,
2013-01-20 18:13:00,19.1,13.4,30.20,NNW,346,6.0,16.0,78,0.00,,---,0.00,VWS V14.00,2013-01-20 23:13:00,
2013-01-20 18:15:00,19.0,13.3,30.20,WNW,292,7.0,16.0,78,0.00,,---,0.00,VWS V14.00,2013-01-20 23:15:00,
2013-01-20 18:17:00,19.0,13.3,30.21,WNW,299,6.0,16.0,78,0.00,,---,0.00,VWS V14.00,2013-01-20 23:17:00,
2013-01-20 18:19:00,19.0,13.6,30.21,NW,323,6.0,16.0,79,0.00,,---,0.00,VWS V14.00,2013-01-20 23:19:00,
2013-01-20 18:20:00,19.0,13.6,30.21,NNW,342,7.0,16.0,79,0.00,,---,0.00,VWS V14.00,2013-01-20 23:20:00,
2013-01-20 18:22:00,19.0,13.6,30.21,NW,326,6.0,16.0,79,0.00,,---,0.00,VWS V14.00,2013-01-20 23:22:00,
2013-01-20 18:23:00,19.0,13.6,30.21,North,355,8.0,16.0,79,0.00,,---,0.00,VWS V14.00,2013-01-20 23:23:00,
2013-01-20 18:25:00,19.0,13.3,30.21,NNW,327,7.0,16.0,78,0.00,,---,0.00,VWS V14.00,2013-01-20 23:25:00,
2013-01-20 18:28:00,18.9,13.2,30.21,NNW,329,11.0,16.0,78,0.00,,---,0.00,VWS V14.00,2013-01-20 23:28:00,
2013-01-20 18:29:00,18.9,13.2,30.21,NW,314,6.0,14.0,78,0.00,,---,0.00,VWS V14.00,2013-01-20 23:29:00,
2013-01-20 18:32:00,18.9,13.2,30.21,NW,320,9.0,14.0,78,0.00,,---,0.00,VWS V14.00,2013-01-20 23:32:00,
2013-01-20 18:34:00,18.9,12.9,30.21,NW,315,7.0,14.0,77,0.00,,---,0.00,VWS V14.00,2013-01-20 23:34:00,
2013-01-20 18:37:00,18.9,12.9,30.21,WNW,283,6.0,14.0,77,0.00,,---,0.00,VWS V14.00,2013-01-20 23:37:00,
2013-01-20 18:38:00,18.9,12.9,30.21,NW,307,7.0,14.0,77,0.00,,---,0.00,VWS V14.00,2013-01-20 23:38:00,
2013-01-20 18:39:00,18.9,12.9,30.21,WNW,299,3.0,14.0,77,0.00,,---,0.00,VWS V14.00,2013-01-20 23:39:00,
2013-01-20 18:43:00,19.0,13.0,30.21,NNW,334,6.0,14.0,77,0.00,,---,0.00,VWS V14.00,2013-01-20 23:43:00,
2013-01-20 18:45:00,19.0,13.0,30.21,NW,304,6.0,14.0,77,0.00,,---,0.00,VWS V14.00,2013-01-20 23:45:00,
2013-01-20 18:46:00,19.0,13.0,30.21,NW,310,3.0,14.0,77,0.00,,---,0.00,VWS V14.00,2013-01-20 23:46:00,
2013-01-20 18:48:00,19.0,13.0,30.21,NNW,331,5.0,14.0,77,0.00,,---,0.00,VWS V14.00,2013-01-20 23:48:00,
2013-01-20 18:51:00,19.0,12.7,30.21,NNW,329,5.0,14.0,76,0.00,,---,0.00,VWS V14.00,2013-01-20 23:51:00,
2013-01-20 18:52:00,19.0,12.7,30.21,NNW,328,5.0,14.0,76,0.00,,---,0.00,VWS V14.00,2013-01-20 23:52:00,
2013-01-20 18:53:00,19.0,12.7,30.21,NW,323,4.0,14.0,76,0.00,,---,0.00,VWS V14.00,2013-01-20 23:53:00,
2013-01-20 18:54:00,19.0,12.7,30.21,NW,323,5.0,14.0,76,0.00,,---,0.00,VWS V14.00,2013-01-20 23:54:00,
2013-01-20 18:57:00,19.1,12.8,30.21,WNW,283,4.0,14.0,76,0.00,,---,0.00,VWS V14.00,2013-01-20 23:57:00,
2013-01-20 18:58:00,19.1,12.8,30.21,NW,309,4.0,14.0,76,0.00,,---,0.00,VWS V14.00,2013-01-20 23:58:00,
2013-01-20 18:59:00,19.1,12.8,30.21,NNW,335,5.0,9.0,76,0.00,,---,0.00,VWS V14.00,2013-01-20 23:59:00,
2013-01-20 19:00:00,19.1,12.8,30.21,NNW,333,4.0,9.0,76,0.00,,---,0.00,VWS V14.00,2013-01-21 00:00:00,
2013-01-20 19:04:00,19.0,12.7,30.21,NW,323,5.0,9.0,76,0.00,,---,0.00,VWS V14.00,2013-01-21 00:04:00,
2013-01-20 19:05:00,19.0,12.7,30.21,WNW,302,4.0,9.0,76,0.00,,---,0.00,VWS V14.00,2013-01-21 00:05:00,
2013-01-20 19:06:00,19.1,12.8,30.21,WNW,299,5.0,9.0,76,0.00,,---,0.00,VWS V14.00,2013-01-21 00:06:00,
2013-01-20 19:08:00,19.1,12.8,30.21,WNW,303,9.0,9.0,76,0.00,,---,0.00,VWS V14.00,2013-01-21 00:08:00,
2013-01-20 19:10:00,19.1,12.5,30.21,NW,320,4.0,9.0,75,0.00,,---,0.00,VWS V14.00,2013-01-21 00:10:00,
2013-01-20 19:12:00,19.1,12.5,30.21,NW,323,7.0,9.0,75,0.00,,---,0.00,VWS V14.00,2013-01-21 00:12:00,
2013-01-20 19:17:00,19.1,12.5,30.21,NNW,336,6.0,9.0,75,0.00,,---,0.00,VWS V14.00,2013-01-21 00:17:00,
2013-01-20 19:19:00,19.1,12.5,30.20,NNW,333,5.0,9.0,75,0.00,,---,0.00,VWS V14.00,2013-01-21 00:19:00,
2013-01-20 19:22:00,19.1,12.5,30.20,WNW,290,4.0,9.0,75,0.00,,---,0.00,VWS V14.00,2013-01-21 00:22:00,
2013-01-20 19:23:00,19.1,12.5,30.20,WNW,291,6.0,9.0,75,0.00,,---,0.00,VWS V14.00,2013-01-21 00:23:00,
2013-01-20 19:24:00,19.1,12.5,30.20,WNW,290,4.0,9.0,75,0.00,,---,0.00,VWS V14.00,2013-01-21 00:24:00,
2013-01-20 19:26:00,19.1,12.2,30.20,WNW,290,4.0,9.0,74,0.00,,---,0.00,VWS V14.00,2013-01-21 00:26:00,
2013-01-20 19:27:00,19.1,12.2,30.20,WNW,283,4.0,9.0,74,0.00,,---,0.00,VWS V14.00,2013-01-21 00:27:00,
2013-01-20 19:33:00,19.1,12.2,30.20,NW,311,5.0,9.0,74,0.00,,---,0.00,VWS V14.00,2013-01-21 00:33:00,
2013-01-20 19:35:00,19.1,11.9,30.20,NW,319,6.0,11.0,73,0.00,,---,0.00,VWS V14.00,2013-01-21 00:35:00,
2013-01-20 19:38:00,19.0,11.8,30.20,NW,320,3.0,11.0,73,0.00,,---,0.00,VWS V14.00,2013-01-21 00:38:00,
2013-01-20 19:42:00,19.1,11.9,30.20,NW,304,5.0,11.0,73,0.00,,---,0.00,VWS V14.00,2013-01-21 00:42:00,
2013-01-20 19:43:00,19.1,11.9,30.20,WNW,303,3.0,11.0,73,0.00,,---,0.00,VWS V14.00,2013-01-21 00:43:00,
2013-01-20 19:45:00,19.1,11.9,30.20,WNW,285,7.0,11.0,73,0.00,,---,0.00,VWS V14.00,2013-01-21 00:45:00,
2013-01-20 19:48:00,19.0,11.8,30.20,NW,325,6.0,11.0,73,0.00,,---,0.00,VWS V14.00,2013-01-21 00:48:00,
2013-01-20 19:49:00,19.0,11.8,30.20,NW,326,3.0,11.0,73,0.00,,---,0.00,VWS V14.00,2013-01-21 00:49:00,
2013-01-20 19:50:00,19.0,11.8,30.20,NW,326,5.0,11.0,73,0.00,,---,0.00,VWS V14.00,2013-01-21 00:50:00,
2013-01-20 19:53:00,19.0,11.8,30.20,NW,320,6.0,11.0,73,0.00,,---,0.00,VWS V14.00,2013-01-21 00:53:00,
2013-01-20 19:54:00,19.0,11.8,30.20,NW,320,4.0,11.0,73,0.00,,---,0.00,VWS V14.00,2013-01-21 00:54:00,
2013-01-20 19:56:00,18.9,11.7,30.20,NW,313,5.0,11.0,73,0.00,,---,0.00,VWS V14.00,2013-01-21 00:56:00,
2013-01-20 19:57:00,18.9,11.7,30.20,NW,304,4.0,11.0,73,0.00,,---,0.00,VWS V14.00,2013-01-21 00:57:00,
2013-01-20 19:59:00,18.9,11.7,30.20,WNW,303,6.0,7.0,73,0.00,,---,0.00,VWS V14.00,2013-01-21 00:59:00,
2013-01-20 20:02:00,19.0,11.8,30.20,NW,304,3.0,7.0,73,0.00,,---,0.00,VWS V14.00,2013-01-21 01:02:00,
2013-01-20 20:03:00,19.0,11.8,30.20,NW,304,5.0,7.0,73,0.00,,---,0.00,VWS V14.00,2013-01-21 01:03:00,
2013-01-20 20:04:00,19.0,11.8,30.20,NW,304,5.0,7.0,73,0.00,,---,0.00,VWS V14.00,2013-01-21 01:04:00,
2013-01-20 20:07:00,18.9,11.7,30.20,NW,304,4.0,7.0,73,0.00,,---,0.00,VWS V14.00,2013-01-21 01:07:00,
2013-01-20 20:08:00,19.0,11.8,30.20,NW,304,4.0,7.0,73,0.00,,---,0.00,VWS V14.00,2013-01-21 01:08:00,
2013-01-20 20:09:00,19.0,11.8,30.20,NW,304,5.0,7.0,73,0.00,,---,0.00,VWS V14.00,2013-01-21 01:09:00,
2013-01-20 20:12:00,18.9,11.7,30.20,NW,304,1.0,7.0,73,0.00,,---,0.00,VWS V14.00,2013-01-21 01:12:00,
2013-01-20 20:14:00,18.9,11.7,30.20,WNW,300,4.0,7.0,73,0.00,,---,0.00,VWS V14.00,2013-01-21 01:14:00,
2013-01-20 20:15:00,19.0,11.8,30.19,WNW,297,4.0,7.0,73,0.00,,---,0.00,VWS V14.00,2013-01-21 01:15:00,
2013-01-20 20:16:00,18.9,11.7,30.19,WNW,297,3.0,7.0,73,0.00,,---,0.00,VWS V14.00,2013-01-21 01:16:00,
2013-01-20 20:18:00,19.0,11.8,30.20,WNW,296,3.0,7.0,73,0.00,,---,0.00,VWS V14.00,2013-01-21 01:18:00,
2013-01-20 20:20:00,19.0,11.8,30.20,WNW,296,7.0,7.0,73,0.00,,---,0.00,VWS V14.00,2013-01-21 01:20:00,
2013-01-20 20:21:00,19.0,11.8,30.20,WNW,290,5.0,7.0,73,0.00,,---,0.00,VWS V14.00,2013-01-21 01:21:00,
2013-01-20 20:22:00,19.0,11.8,30.20,WNW,282,4.0,9.0,73,0.00,,---,0.00,VWS V14.00,2013-01-21 01:22:00,
2013-01-20 20:26:00,19.0,11.8,30.20,WNW,294,5.0,9.0,73,0.00,,---,0.00,VWS V14.00,2013-01-21 01:26:00,
2013-01-20 20:27:00,19.0,11.8,30.20,WNW,294,4.0,9.0,73,0.00,,---,0.00,VWS V14.00,2013-01-21 01:27:00,
2013-01-20 20:28:00,19.1,11.9,30.20,WNW,294,4.0,9.0,73,0.00,,---,0.00,VWS V14.00,2013-01-21 01:28:00,
2013-01-20 20:31:00,19.1,12.2,30.20,WNW,294,3.0,6.0,74,0.00,,---,0.00,VWS V14.00,2013-01-21 01:31:00,
2013-01-20 20:32:00,19.1,12.2,30.19,WNW,294,2.0,6.0,74,0.00,,---,0.00,VWS V14.00,2013-01-21 01:32:00,
2013-01-20 20:33:00,19.1,12.2,30.20,WNW,294,3.0,6.0,74,0.00,,---,0.00,VWS V14.00,2013-01-21 01:33:00,
2013-01-20 20:36:00,19.1,12.2,30.19,WNW,294,6.0,6.0,74,0.00,,---,0.00,VWS V14.00,2013-01-21 01:36:00,
2013-01-20 20:37:00,19.1,12.2,30.19,WNW,286,3.0,6.0,74,0.00,,---,0.00,VWS V14.00,2013-01-21 01:37:00,
2013-01-20 20:40:00,19.1,12.2,30.19,WNW,286,4.0,6.0,74,0.00,,---,0.00,VWS V14.00,2013-01-21 01:40:00,
2013-01-20 20:44:00,19.0,12.1,30.19,WNW,286,5.0,6.0,74,0.00,,---,0.00,VWS V14.00,2013-01-21 01:44:00,
2013-01-20 20:46:00,19.1,12.2,30.20,WNW,286,2.0,6.0,74,0.00,,---,0.00,VWS V14.00,2013-01-21 01:46:00,
2013-01-20 20:48:00,19.1,12.2,30.20,WNW,286,4.0,6.0,74,0.00,,---,0.00,VWS V14.00,2013-01-21 01:48:00,
2013-01-20 20:49:00,19.1,12.2,30.20,WNW,286,3.0,6.0,74,0.00,,---,0.00,VWS V14.00,2013-01-21 01:49:00,
2013-01-20 20:53:00,19.1,12.2,30.20,WNW,286,2.0,6.0,74,0.00,,---,0.00,VWS V14.00,2013-01-21 01:53:00,
2013-01-20 20:54:00,19.2,12.3,30.19,WNW,286,2.0,6.0,74,0.00,,---,0.00,VWS V14.00,2013-01-21 01:54:00,
2013-01-20 20:55:00,19.2,12.3,30.19,WNW,286,3.0,6.0,74,0.00,,---,0.00,VWS V14.00,2013-01-21 01:55:00,
2013-01-20 20:58:00,19.2,12.3,30.19,WNW,291,4.0,7.0,74,0.00,,---,0.00,VWS V14.00,2013-01-21 01:58:00,
2013-01-20 21:00:00,19.2,12.3,30.19,WNW,296,6.0,9.0,74,0.00,,---,0.00,VWS V14.00,2013-01-21 02:00:00,
2013-01-20 21:02:00,19.2,12.3,30.19,WNW,295,6.0,9.0,74,0.00,,---,0.00,VWS V14.00,2013-01-21 02:02:00,
2013-01-20 21:03:00,19.2,12.3,30.19,WNW,293,2.0,9.0,74,0.00,,---,0.00,VWS V14.00,2013-01-21 02:03:00,
2013-01-20 21:04:00,19.2,12.3,30.19,WNW,291,4.0,9.0,74,0.00,,---,0.00,VWS V14.00,2013-01-21 02:04:00,
2013-01-20 21:06:00,19.2,12.3,30.19,WNW,291,3.0,9.0,74,0.00,,---,0.00,VWS V14.00,2013-01-21 02:06:00,
2013-01-20 21:08:00,19.3,12.4,30.19,WNW,290,0.0,9.0,74,0.00,,---,0.00,VWS V14.00,2013-01-21 02:08:00,
2013-01-20 21:09:00,19.3,12.4,30.19,WNW,290,0.0,9.0,74,0.00,,---,0.00,VWS V14.00,2013-01-21 02:09:00,
2013-01-20 21:10:00,19.3,12.4,30.19,WNW,290,0.0,9.0,74,0.00,,---,0.00,VWS V14.00,2013-01-21 02:10:00,
2013-01-20 21:11:00,19.3,12.4,30.19,WNW,290,0.0,9.0,74,0.00,,---,0.00,VWS V14.00,2013-01-21 02:11:00,
2013-01-20 21:15:00,19.3,12.4,30.18,WNW,290,0.0,9.0,74,0.00,,---,0.00,VWS V14.00,2013-01-21 02:15:00,
2013-01-20 21:16:00,19.3,12.4,30.18,WNW,290,0.0,9.0,74,0.00,,---,0.00,VWS V14.00,2013-01-21 02:16:00,
2013-01-20 21:18:00,19.2,12.3,30.18,WNW,290,0.0,9.0,74,0.00,,---,0.00,VWS V14.00,2013-01-21 02:18:00,
2013-01-20 21:20:00,19.2,12.3,30.18,WNW,290,0.0,9.0,74,0.00,,---,0.00,VWS V14.00,2013-01-21 02:20:00,
2013-01-20 21:22:00,19.2,12.3,30.18,WNW,291,0.0,9.0,74,0.00,,---,0.00,VWS V14.00,2013-01-21 02:22:00,
2013-01-20 21:24:00,19.2,12.6,30.18,WNW,291,0.0,9.0,75,0.00,,---,0.00,VWS V14.00,2013-01-21 02:24:00,
2013-01-20 21:25:00,19.1,12.5,30.18,WNW,291,0.0,9.0,75,0.00,,---,0.00,VWS V14.00,2013-01-21 02:25:00,
2013-01-20 21:27:00,19.1,12.5,30.18,WNW,291,0.0,9.0,75,0.00,,---,0.00,VWS V14.00,2013-01-21 02:27:00,
2013-01-20 21:29:00,19.2,12.6,30.18,WNW,291,3.0,3.0,75,0.00,,---,0.00,VWS V14.00,2013-01-21 02:29:00,
2013-01-20 21:30:00,19.2,12.6,30.18,WNW,291,0.0,3.0,75,0.00,,---,0.00,VWS V14.00,2013-01-21 02:30:00,
2013-01-20 21:33:00,19.2,12.6,30.18,WNW,291,0.0,3.0,75,0.00,,---,0.00,VWS V14.00,2013-01-21 02:33:00,
2013-01-20 21:34:00,19.2,12.6,30.18,WNW,291,0.0,3.0,75,0.00,,---,0.00,VWS V14.00,2013-01-21 02:34:00,
2013-01-20 21:35:00,19.2,12.6,30.18,WNW,291,0.0,3.0,75,0.00,,---,0.00,VWS V14.00,2013-01-21 02:35:00,
2013-01-20 21:39:00,19.1,12.5,30.18,WNW,291,0.0,3.0,75,0.00,,---,0.00,VWS V14.00,2013-01-21 02:39:00,
2013-01-20 21:41:00,19.1,12.5,30.18,WNW,291,0.0,3.0,75,0.00,,---,0.00,VWS V14.00,2013-01-21 02:41:00,
2013-01-20 21:42:00,19.1,12.5,30.18,WNW,291,0.0,3.0,75,0.00,,---,0.00,VWS V14.00,2013-01-21 02:42:00,
2013-01-20 21:45:00,19.2,12.9,30.18,WNW,291,0.0,3.0,76,0.00,,---,0.00,VWS V14.00,2013-01-21 02:45:00,
2013-01-20 21:46:00,19.2,12.9,30.18,WNW,291,0.0,3.0,76,0.00,,---,0.00,VWS V14.00,2013-01-21 02:46:00,
2013-01-20 21:48:00,19.2,12.9,30.18,WNW,291,0.0,3.0,76,0.00,,---,0.00,VWS V14.00,2013-01-21 02:48:00,
2013-01-20 21:49:00,19.2,12.9,30.18,WNW,291,0.0,3.0,76,0.00,,---,0.00,VWS V14.00,2013-01-21 02:49:00,
2013-01-20 21:52:00,19.2,12.9,30.18,WNW,288,0.0,3.0,76,0.00,,---,0.00,VWS V14.00,2013-01-21 02:52:00,
2013-01-20 21:53:00,19.1,12.8,30.18,WNW,288,0.0,3.0,76,0.00,,---,0.00,VWS V14.00,2013-01-21 02:53:00,
2013-01-20 21:54:00,19.1,12.8,30.18,WNW,289,0.0,3.0,76,0.00,,---,0.00,VWS V14.00,2013-01-21 02:54:00,
2013-01-20 21:57:00,19.1,12.8,30.18,WNW,288,0.0,3.0,76,0.00,,---,0.00,VWS V14.00,2013-01-21 02:57:00,
2013-01-20 21:58:00,19.1,12.8,30.18,WNW,288,0.0,3.0,76,0.00,,---,0.00,VWS V14.00,2013-01-21 02:58:00,
2013-01-20 22:02:00,19.2,12.9,30.18,WNW,289,0.0,0.0,76,0.00,,---,0.00,VWS V14.00,2013-01-21 03:02:00,
2013-01-20 22:03:00,19.1,12.8,30.17,WNW,289,0.0,0.0,76,0.00,,---,0.00,VWS V14.00,2013-01-21 03:03:00,
2013-01-20 22:05:00,19.2,12.9,30.17,West,267,2.0,3.0,76,0.00,,---,0.00,VWS V14.00,2013-01-21 03:05:00,
2013-01-20 22:08:00,19.1,12.5,30.17,West,267,2.0,4.0,75,0.00,,---,0.00,VWS V14.00,2013-01-21 03:08:00,
2013-01-20 22:11:00,19.1,12.5,30.17,West,261,0.0,4.0,75,0.00,,---,0.00,VWS V14.00,2013-01-21 03:11:00,
2013-01-20 22:13:00,19.1,12.5,30.17,West,262,2.0,4.0,75,0.00,,---,0.00,VWS V14.00,2013-01-21 03:13:00,
2013-01-20 22:14:00,19.1,12.5,30.17,West,262,0.0,4.0,75,0.00,,---,0.00,VWS V14.00,2013-01-21 03:14:00,
2013-01-20 22:18:00,19.1,12.5,30.17,West,261,0.0,4.0,75,0.00,,---,0.00,VWS V14.00,2013-01-21 03:18:00,
2013-01-20 22:19:00,19.1,12.5,30.17,West,261,3.0,4.0,75,0.00,,---,0.00,VWS V14.00,2013-01-21 03:19:00,
2013-01-20 22:20:00,19.1,12.5,30.17,West,261,0.0,4.0,75,0.00,,---,0.00,VWS V14.00,2013-01-21 03:20:00,
2013-01-20 22:23:00,19.1,12.5,30.17,West,262,0.0,4.0,75,0.00,,---,0.00,VWS V14.00,2013-01-21 03:23:00,
2013-01-20 22:24:00,19.1,12.8,30.17,West,261,0.0,4.0,76,0.00,,---,0.00,VWS V14.00,2013-01-21 03:24:00,
2013-01-20 22:27:00,19.1,12.8,30.16,West,263,3.0,4.0,76,0.00,,---,0.00,VWS V14.00,2013-01-21 03:27:00,
2013-01-20 22:28:00,19.1,12.8,30.16,West,263,2.0,4.0,76,0.00,,---,0.00,VWS V14.00,2013-01-21 03:28:00,
2013-01-20 22:30:00,19.1,12.5,30.16,West,263,0.0,0.0,75,0.00,,---,0.00,VWS V14.00,2013-01-21 03:30:00,
2013-01-20 22:33:00,19.1,12.5,30.17,West,263,1.0,3.0,75,0.00,,---,0.00,VWS V14.00,2013-01-21 03:33:00,
2013-01-20 22:34:00,19.1,12.5,30.17,West,263,0.0,3.0,75,0.00,,---,0.00,VWS V14.00,2013-01-21 03:34:00,
2013-01-20 22:36:00,19.1,12.5,30.17,West,263,2.0,3.0,75,0.00,,---,0.00,VWS V14.00,2013-01-21 03:36:00,
2013-01-20 22:38:00,19.1,12.5,30.17,West,263,3.0,4.0,75,0.00,,---,0.00,VWS V14.00,2013-01-21 03:38:00,
2013-01-20 22:39:00,19.1,12.5,30.17,West,264,3.0,4.0,75,0.00,,---,0.00,VWS V14.00,2013-01-21 03:39:00,
2013-01-20 22:40:00,19.1,12.5,30.16,West,264,0.0,4.0,75,0.00,,---,0.00,VWS V14.00,2013-01-21 03:40:00,
2013-01-20 22:41:00,19.1,12.5,30.16,West,264,0.0,4.0,75,0.00,,---,0.00,VWS V14.00,2013-01-21 03:41:00,
2013-01-20 22:46:00,19.2,12.9,30.16,West,264,0.0,4.0,76,0.00,,---,0.00,VWS V14.00,2013-01-21 03:46:00,
2013-01-20 22:47:00,19.3,13.0,30.16,West,264,0.0,4.0,76,0.00,,---,0.00,VWS V14.00,2013-01-21 03:47:00,
2013-01-20 22:48:00,19.2,12.9,30.16,West,265,0.0,4.0,76,0.00,,---,0.00,VWS V14.00,2013-01-21 03:48:00,
2013-01-20 22:51:00,19.3,13.0,30.16,West,265,2.0,4.0,76,0.00,,---,0.00,VWS V14.00,2013-01-21 03:51:00,
2013-01-20 22:53:00,19.3,13.0,30.16,West,265,0.0,4.0,76,0.00,,---,0.00,VWS V14.00,2013-01-21 03:53:00,
2013-01-20 22:54:00,19.3,13.0,30.16,West,265,0.0,4.0,76,0.00,,---,0.00,VWS V14.00,2013-01-21 03:54:00,
2013-01-20 22:58:00,19.3,13.0,30.16,West,265,0.0,4.0,76,0.00,,---,0.00,VWS V14.00,2013-01-21 03:58:00,
2013-01-20 22:59:00,19.3,13.0,30.16,West,265,0.0,0.0,76,0.00,,---,0.00,VWS V14.00,2013-01-21 03:59:00,
2013-01-20 23:00:00,19.3,13.0,30.16,West,265,0.0,0.0,76,0.00,,---,0.00,VWS V14.00,2013-01-21 04:00:00,
2013-01-20 23:04:00,19.3,13.0,30.16,West,265,0.0,3.0,76,0.00,,---,0.00,VWS V14.00,2013-01-21 04:04:00,
2013-01-20 23:05:00,19.3,13.0,30.16,West,265,0.0,3.0,76,0.00,,---,0.00,VWS V14.00,2013-01-21 04:05:00,
2013-01-20 23:08:00,19.3,12.7,30.16,West,267,0.0,3.0,75,0.00,,---,0.00,VWS V14.00,2013-01-21 04:08:00,
2013-01-20 23:09:00,19.3,12.7,30.16,West,267,0.0,3.0,75,0.00,,---,0.00,VWS V14.00,2013-01-21 04:09:00,
2013-01-20 23:11:00,19.3,12.7,30.16,West,267,0.0,3.0,75,0.00,,---,0.00,VWS V14.00,2013-01-21 04:11:00,
2013-01-20 23:13:00,19.4,12.8,30.16,West,267,0.0,3.0,75,0.00,,---,0.00,VWS V14.00,2013-01-21 04:13:00,
2013-01-20 23:17:00,19.4,12.8,30.15,West,267,0.0,3.0,75,0.00,,---,0.00,VWS V14.00,2013-01-21 04:17:00,
2013-01-20 23:20:00,19.4,12.8,30.15,West,266,0.0,3.0,75,0.00,,---,0.00,VWS V14.00,2013-01-21 04:20:00,
2013-01-20 23:21:00,19.5,12.9,30.15,West,266,0.0,3.0,75,0.00,,---,0.00,VWS V14.00,2013-01-21 04:21:00,
2013-01-20 23:22:00,19.4,12.5,30.15,West,266,0.0,3.0,74,0.00,,---,0.00,VWS V14.00,2013-01-21 04:22:00,
2013-01-20 23:23:00,19.4,12.5,30.15,West,266,2.0,3.0,74,0.00,,---,0.00,VWS V14.00,2013-01-21 04:23:00,
2013-01-20 23:28:00,19.5,12.6,30.15,West,265,0.0,3.0,74,0.00,,---,0.00,VWS V14.00,2013-01-21 04:28:00,
2013-01-20 23:29:00,19.5,12.6,30.14,West,266,1.0,1.0,74,0.00,,---,0.00,VWS V14.00,2013-01-21 04:29:00,
2013-01-20 23:30:00,19.5,12.6,30.14,West,267,1.0,5.0,74,0.00,,---,0.00,VWS V14.00,2013-01-21 04:30:00,
2013-01-20 23:33:00,19.6,12.7,30.14,West,267,0.0,5.0,74,0.00,,---,0.00,VWS V14.00,2013-01-21 04:33:00,
2013-01-20 23:34:00,19.6,12.4,30.14,West,267,3.0,5.0,73,0.00,,---,0.00,VWS V14.00,2013-01-21 04:34:00,
2013-01-20 23:37:00,19.7,12.5,30.14,West,267,0.0,5.0,73,0.00,,---,0.00,VWS V14.00,2013-01-21 04:37:00,
2013-01-20 23:38:00,19.7,12.5,30.14,West,267,3.0,5.0,73,0.00,,---,0.00,VWS V14.00,2013-01-21 04:38:00,
2013-01-20 23:39:00,19.7,12.5,30.14,West,267,0.0,5.0,73,0.00,,---,0.00,VWS V14.00,2013-01-21 04:39:00,
2013-01-20 23:40:00,19.7,12.5,30.14,West,267,0.0,5.0,73,0.00,,---,0.00,VWS V14.00,2013-01-21 04:40:00,
2013-01-20 23:43:00,19.6,12.4,30.14,West,267,2.0,5.0,73,0.00,,---,0.00,VWS V14.00,2013-01-21 04:43:00,
2013-01-20 23:45:00,19.7,12.5,30.14,West,269,3.0,5.0,73,0.00,,---,0.00,VWS V14.00,2013-01-21 04:45:00,
2013-01-20 23:46:00,19.7,12.5,30.14,West,269,2.0,5.0,73,0.00,,---,0.00,VWS V14.00,2013-01-21 04:46:00,
2013-01-20 23:48:00,19.7,12.5,30.14,West,268,0.0,5.0,73,0.00,,---,0.00,VWS V14.00,2013-01-21 04:48:00,
2013-01-20 23:51:00,19.7,12.5,30.14,West,268,0.0,5.0,73,0.00,,---,0.00,VWS V14.00,2013-01-21 04:51:00,
2013-01-20 23:53:00,19.7,12.5,30.14,West,269,0.0,5.0,73,0.00,,---,0.00,VWS V14.00,2013-01-21 04:53:00,
2013-01-20 23:57:00,19.7,12.5,30.14,West,269,0.0,5.0,73,0.00,,---,0.00,VWS V14.00,2013-01-21 04:57:00,
2013-01-20 23:58:00,19.7,12.5,30.14,West,269,0.0,5.0,73,0.00,,---,0.00,VWS V14.00,2013-01-21 04:58:00,
2013-01-20 23:59:00,19.7,12.5,30.14,West,269,0.0,0.0,73,0.00,,---,0.00,VWS V14.00,2013-01-21 04:59:00,